<?xml version="1.0" encoding="UTF-8" standalone="no" ?>
<gpx xmlns="http://www.topografix.com/GPX/1/1" xmlns:xsi="http://www.w3.org/2001/XMLSchema-instance" xsi:schemaLocation="http://www.topografix.com/GPX/1/1 http://www.topografix.com/GPX/1/1/gpx.xsd" version="1.1" creator="VisuGPX - https://www.visugpx.com">
  <metadata>
    <name>2014-03-02-Pic du midi</name>
  </metadata>
  <trk>
    <name><![CDATA[2014-03-02-Pic du midi]]></name>
    <trkseg>
      <trkpt lat="45.97859" lon="6.46816">
        <ele>1405.1</ele>
        <time>2014-03-02T07:52:56Z</time>
      </trkpt>
      <trkpt lat="45.97873" lon="6.4678">
        <ele>1406.5</ele>
        <time>2014-03-02T07:53:23Z</time>
      </trkpt>
      <trkpt lat="45.97883" lon="6.46749">
        <ele>1407.5</ele>
        <time>2014-03-02T07:53:45Z</time>
      </trkpt>
      <trkpt lat="45.97898" lon="6.46725">
        <ele>1409.9</ele>
        <time>2014-03-02T07:54:07Z</time>
      </trkpt>
      <trkpt lat="45.97898" lon="6.46725">
        <ele>1410.4</ele>
        <time>2014-03-02T07:54:33Z</time>
      </trkpt>
      <trkpt lat="45.97911" lon="6.46709">
        <ele>1410.9</ele>
        <time>2014-03-02T07:54:54Z</time>
      </trkpt>
      <trkpt lat="45.9793" lon="6.46687">
        <ele>1411.8</ele>
        <time>2014-03-02T07:55:18Z</time>
      </trkpt>
      <trkpt lat="45.9795" lon="6.46665">
        <ele>1413.8</ele>
        <time>2014-03-02T07:55:44Z</time>
      </trkpt>
      <trkpt lat="45.97971" lon="6.46644">
        <ele>1416.2</ele>
        <time>2014-03-02T07:56:11Z</time>
      </trkpt>
      <trkpt lat="45.97997" lon="6.46621">
        <ele>1419</ele>
        <time>2014-03-02T07:56:47Z</time>
      </trkpt>
      <trkpt lat="45.98017" lon="6.46599">
        <ele>1421.4</ele>
        <time>2014-03-02T07:57:15Z</time>
      </trkpt>
      <trkpt lat="45.98048" lon="6.46589">
        <ele>1426.7</ele>
        <time>2014-03-02T07:57:50Z</time>
      </trkpt>
      <trkpt lat="45.98053" lon="6.46587">
        <ele>1427.2</ele>
        <time>2014-03-02T07:58:18Z</time>
      </trkpt>
      <trkpt lat="45.98055" lon="6.46585">
        <ele>1427.7</ele>
        <time>2014-03-02T07:58:34Z</time>
      </trkpt>
      <trkpt lat="45.98075" lon="6.46581">
        <ele>1430.1</ele>
        <time>2014-03-02T07:58:57Z</time>
      </trkpt>
      <trkpt lat="45.98086" lon="6.46576">
        <ele>1433</ele>
        <time>2014-03-02T07:59:30Z</time>
      </trkpt>
      <trkpt lat="45.98109" lon="6.46573">
        <ele>1435.9</ele>
        <time>2014-03-02T07:59:51Z</time>
      </trkpt>
      <trkpt lat="45.98135" lon="6.46567">
        <ele>1441.2</ele>
        <time>2014-03-02T08:00:17Z</time>
      </trkpt>
      <trkpt lat="45.98164" lon="6.46558">
        <ele>1444.5</ele>
        <time>2014-03-02T08:00:50Z</time>
      </trkpt>
      <trkpt lat="45.98194" lon="6.46549">
        <ele>1446.4</ele>
        <time>2014-03-02T08:01:20Z</time>
      </trkpt>
      <trkpt lat="45.98224" lon="6.46537">
        <ele>1449.3</ele>
        <time>2014-03-02T08:01:53Z</time>
      </trkpt>
      <trkpt lat="45.98252" lon="6.4653">
        <ele>1451.7</ele>
        <time>2014-03-02T08:02:23Z</time>
      </trkpt>
      <trkpt lat="45.98278" lon="6.46526">
        <ele>1453.7</ele>
        <time>2014-03-02T08:02:49Z</time>
      </trkpt>
      <trkpt lat="45.98294" lon="6.46527">
        <ele>1454.6</ele>
        <time>2014-03-02T08:03:05Z</time>
      </trkpt>
      <trkpt lat="45.98318" lon="6.46533">
        <ele>1456.5</ele>
        <time>2014-03-02T08:03:29Z</time>
      </trkpt>
      <trkpt lat="45.98339" lon="6.46539">
        <ele>1458.5</ele>
        <time>2014-03-02T08:03:52Z</time>
      </trkpt>
      <trkpt lat="45.98365" lon="6.46548">
        <ele>1459.4</ele>
        <time>2014-03-02T08:04:21Z</time>
      </trkpt>
      <trkpt lat="45.98394" lon="6.46558">
        <ele>1461.8</ele>
        <time>2014-03-02T08:04:54Z</time>
      </trkpt>
      <trkpt lat="45.98415" lon="6.46567">
        <ele>1463.7</ele>
        <time>2014-03-02T08:05:16Z</time>
      </trkpt>
      <trkpt lat="45.98438" lon="6.46576">
        <ele>1464.7</ele>
        <time>2014-03-02T08:05:42Z</time>
      </trkpt>
      <trkpt lat="45.9846" lon="6.46584">
        <ele>1466.1</ele>
        <time>2014-03-02T08:06:07Z</time>
      </trkpt>
      <trkpt lat="45.98476" lon="6.46589">
        <ele>1467.1</ele>
        <time>2014-03-02T08:06:27Z</time>
      </trkpt>
      <trkpt lat="45.98499" lon="6.46597">
        <ele>1467.6</ele>
        <time>2014-03-02T08:06:49Z</time>
      </trkpt>
      <trkpt lat="45.98525" lon="6.46612">
        <ele>1469.5</ele>
        <time>2014-03-02T08:07:19Z</time>
      </trkpt>
      <trkpt lat="45.98553" lon="6.4663">
        <ele>1473.4</ele>
        <time>2014-03-02T08:07:51Z</time>
      </trkpt>
      <trkpt lat="45.98573" lon="6.46653">
        <ele>1475.3</ele>
        <time>2014-03-02T08:08:19Z</time>
      </trkpt>
      <trkpt lat="45.98593" lon="6.46674">
        <ele>1476.7</ele>
        <time>2014-03-02T08:08:45Z</time>
      </trkpt>
      <trkpt lat="45.98597" lon="6.4668">
        <ele>1477.7</ele>
        <time>2014-03-02T08:09:10Z</time>
      </trkpt>
      <trkpt lat="45.98606" lon="6.46697">
        <ele>1480.1</ele>
        <time>2014-03-02T08:09:36Z</time>
      </trkpt>
      <trkpt lat="45.98609" lon="6.46705">
        <ele>1481.5</ele>
        <time>2014-03-02T08:09:56Z</time>
      </trkpt>
      <trkpt lat="45.98615" lon="6.46712">
        <ele>1481.5</ele>
        <time>2014-03-02T08:10:13Z</time>
      </trkpt>
      <trkpt lat="45.9862" lon="6.46724">
        <ele>1482.5</ele>
        <time>2014-03-02T08:10:22Z</time>
      </trkpt>
      <trkpt lat="45.98628" lon="6.46743">
        <ele>1483</ele>
        <time>2014-03-02T08:10:43Z</time>
      </trkpt>
      <trkpt lat="45.98637" lon="6.46763">
        <ele>1484.9</ele>
        <time>2014-03-02T08:11:00Z</time>
      </trkpt>
      <trkpt lat="45.98651" lon="6.46795">
        <ele>1486.3</ele>
        <time>2014-03-02T08:11:22Z</time>
      </trkpt>
      <trkpt lat="45.9866" lon="6.46823">
        <ele>1488.7</ele>
        <time>2014-03-02T08:11:40Z</time>
      </trkpt>
      <trkpt lat="45.98674" lon="6.46854">
        <ele>1490.7</ele>
        <time>2014-03-02T08:12:06Z</time>
      </trkpt>
      <trkpt lat="45.98685" lon="6.46885">
        <ele>1493.1</ele>
        <time>2014-03-02T08:12:29Z</time>
      </trkpt>
      <trkpt lat="45.98697" lon="6.46911">
        <ele>1494.5</ele>
        <time>2014-03-02T08:12:51Z</time>
      </trkpt>
      <trkpt lat="45.98713" lon="6.46937">
        <ele>1497.4</ele>
        <time>2014-03-02T08:13:14Z</time>
      </trkpt>
      <trkpt lat="45.98731" lon="6.46965">
        <ele>1500.8</ele>
        <time>2014-03-02T08:13:39Z</time>
      </trkpt>
      <trkpt lat="45.98743" lon="6.46991">
        <ele>1501.7</ele>
        <time>2014-03-02T08:14:00Z</time>
      </trkpt>
      <trkpt lat="45.9876" lon="6.47012">
        <ele>1504.6</ele>
        <time>2014-03-02T08:14:22Z</time>
      </trkpt>
      <trkpt lat="45.98774" lon="6.47038">
        <ele>1507</ele>
        <time>2014-03-02T08:14:46Z</time>
      </trkpt>
      <trkpt lat="45.98789" lon="6.47061">
        <ele>1508.4</ele>
        <time>2014-03-02T08:15:09Z</time>
      </trkpt>
      <trkpt lat="45.98795" lon="6.47072">
        <ele>1509.4</ele>
        <time>2014-03-02T08:15:28Z</time>
      </trkpt>
      <trkpt lat="45.98799" lon="6.4708">
        <ele>1509.9</ele>
        <time>2014-03-02T08:15:49Z</time>
      </trkpt>
      <trkpt lat="45.98801" lon="6.47087">
        <ele>1510.4</ele>
        <time>2014-03-02T08:15:55Z</time>
      </trkpt>
      <trkpt lat="45.98806" lon="6.47102">
        <ele>1510.4</ele>
        <time>2014-03-02T08:16:06Z</time>
      </trkpt>
      <trkpt lat="45.98808" lon="6.47129">
        <ele>1511.8</ele>
        <time>2014-03-02T08:16:29Z</time>
      </trkpt>
      <trkpt lat="45.98813" lon="6.47159">
        <ele>1514.2</ele>
        <time>2014-03-02T08:16:55Z</time>
      </trkpt>
      <trkpt lat="45.98817" lon="6.47178">
        <ele>1518.1</ele>
        <time>2014-03-02T08:17:16Z</time>
      </trkpt>
      <trkpt lat="45.98821" lon="6.47205">
        <ele>1521.4</ele>
        <time>2014-03-02T08:17:49Z</time>
      </trkpt>
      <trkpt lat="45.98824" lon="6.47232">
        <ele>1523.8</ele>
        <time>2014-03-02T08:18:17Z</time>
      </trkpt>
      <trkpt lat="45.98824" lon="6.47248">
        <ele>1527.2</ele>
        <time>2014-03-02T08:18:35Z</time>
      </trkpt>
      <trkpt lat="45.98824" lon="6.47248">
        <ele>1527.2</ele>
        <time>2014-03-02T08:19:23Z</time>
      </trkpt>
      <trkpt lat="45.98826" lon="6.47249">
        <ele>1527.2</ele>
        <time>2014-03-02T08:19:39Z</time>
      </trkpt>
      <trkpt lat="45.98837" lon="6.47244">
        <ele>1527.2</ele>
        <time>2014-03-02T08:19:49Z</time>
      </trkpt>
      <trkpt lat="45.98846" lon="6.47236">
        <ele>1528.2</ele>
        <time>2014-03-02T08:20:06Z</time>
      </trkpt>
      <trkpt lat="45.98857" lon="6.47241">
        <ele>1533.9</ele>
        <time>2014-03-02T08:20:26Z</time>
      </trkpt>
      <trkpt lat="45.98866" lon="6.47245">
        <ele>1535.4</ele>
        <time>2014-03-02T08:20:44Z</time>
      </trkpt>
      <trkpt lat="45.98878" lon="6.47248">
        <ele>1539.2</ele>
        <time>2014-03-02T08:21:10Z</time>
      </trkpt>
      <trkpt lat="45.98889" lon="6.4727">
        <ele>1544.5</ele>
        <time>2014-03-02T08:21:37Z</time>
      </trkpt>
      <trkpt lat="45.98891" lon="6.47274">
        <ele>1545.9</ele>
        <time>2014-03-02T08:22:00Z</time>
      </trkpt>
      <trkpt lat="45.98896" lon="6.47281">
        <ele>1547.4</ele>
        <time>2014-03-02T08:22:21Z</time>
      </trkpt>
      <trkpt lat="45.98902" lon="6.47293">
        <ele>1550.3</ele>
        <time>2014-03-02T08:22:41Z</time>
      </trkpt>
      <trkpt lat="45.98916" lon="6.47315">
        <ele>1555.1</ele>
        <time>2014-03-02T08:23:11Z</time>
      </trkpt>
      <trkpt lat="45.98923" lon="6.47324">
        <ele>1558</ele>
        <time>2014-03-02T08:23:25Z</time>
      </trkpt>
      <trkpt lat="45.98939" lon="6.47344">
        <ele>1563.2</ele>
        <time>2014-03-02T08:23:54Z</time>
      </trkpt>
      <trkpt lat="45.98955" lon="6.47363">
        <ele>1566.6</ele>
        <time>2014-03-02T08:24:23Z</time>
      </trkpt>
      <trkpt lat="45.98975" lon="6.47365">
        <ele>1570.5</ele>
        <time>2014-03-02T08:24:51Z</time>
      </trkpt>
      <trkpt lat="45.98997" lon="6.4736">
        <ele>1574.8</ele>
        <time>2014-03-02T08:25:18Z</time>
      </trkpt>
      <trkpt lat="45.98998" lon="6.47359">
        <ele>1574.8</ele>
        <time>2014-03-02T08:25:20Z</time>
      </trkpt>
      <trkpt lat="45.99013" lon="6.47366">
        <ele>1576.2</ele>
        <time>2014-03-02T08:25:41Z</time>
      </trkpt>
      <trkpt lat="45.99022" lon="6.47364">
        <ele>1578.1</ele>
        <time>2014-03-02T08:25:53Z</time>
      </trkpt>
      <trkpt lat="45.99041" lon="6.47361">
        <ele>1579.6</ele>
        <time>2014-03-02T08:26:14Z</time>
      </trkpt>
      <trkpt lat="45.99057" lon="6.47374">
        <ele>1580.5</ele>
        <time>2014-03-02T08:26:38Z</time>
      </trkpt>
      <trkpt lat="45.99076" lon="6.47392">
        <ele>1583.4</ele>
        <time>2014-03-02T08:27:09Z</time>
      </trkpt>
      <trkpt lat="45.99098" lon="6.47415">
        <ele>1584.9</ele>
        <time>2014-03-02T08:27:43Z</time>
      </trkpt>
      <trkpt lat="45.99101" lon="6.4742">
        <ele>1585.4</ele>
        <time>2014-03-02T08:27:48Z</time>
      </trkpt>
      <trkpt lat="45.99123" lon="6.47443">
        <ele>1586.3</ele>
        <time>2014-03-02T08:28:19Z</time>
      </trkpt>
      <trkpt lat="45.99147" lon="6.47462">
        <ele>1590.2</ele>
        <time>2014-03-02T08:28:53Z</time>
      </trkpt>
      <trkpt lat="45.99164" lon="6.47477">
        <ele>1595.9</ele>
        <time>2014-03-02T08:29:25Z</time>
      </trkpt>
      <trkpt lat="45.99181" lon="6.4749">
        <ele>1602.7</ele>
        <time>2014-03-02T08:29:58Z</time>
      </trkpt>
      <trkpt lat="45.9919" lon="6.47491">
        <ele>1604.1</ele>
        <time>2014-03-02T08:30:16Z</time>
      </trkpt>
      <trkpt lat="45.99191" lon="6.47496">
        <ele>1604.6</ele>
        <time>2014-03-02T08:30:32Z</time>
      </trkpt>
      <trkpt lat="45.99191" lon="6.47493">
        <ele>1603.6</ele>
        <time>2014-03-02T08:30:48Z</time>
      </trkpt>
      <trkpt lat="45.99197" lon="6.47495">
        <ele>1605.1</ele>
        <time>2014-03-02T08:31:11Z</time>
      </trkpt>
      <trkpt lat="45.99209" lon="6.47505">
        <ele>1606</ele>
        <time>2014-03-02T08:31:39Z</time>
      </trkpt>
      <trkpt lat="45.99224" lon="6.47522">
        <ele>1611.3</ele>
        <time>2014-03-02T08:32:05Z</time>
      </trkpt>
      <trkpt lat="45.99229" lon="6.47511">
        <ele>1611.8</ele>
        <time>2014-03-02T08:32:22Z</time>
      </trkpt>
      <trkpt lat="45.99231" lon="6.47485">
        <ele>1617.1</ele>
        <time>2014-03-02T08:32:45Z</time>
      </trkpt>
      <trkpt lat="45.99227" lon="6.47448">
        <ele>1619</ele>
        <time>2014-03-02T08:33:14Z</time>
      </trkpt>
      <trkpt lat="45.99222" lon="6.47424">
        <ele>1623.8</ele>
        <time>2014-03-02T08:33:40Z</time>
      </trkpt>
      <trkpt lat="45.99215" lon="6.474">
        <ele>1631</ele>
        <time>2014-03-02T08:34:10Z</time>
      </trkpt>
      <trkpt lat="45.99222" lon="6.4737">
        <ele>1635.8</ele>
        <time>2014-03-02T08:34:46Z</time>
      </trkpt>
      <trkpt lat="45.99225" lon="6.47348">
        <ele>1639.2</ele>
        <time>2014-03-02T08:35:12Z</time>
      </trkpt>
      <trkpt lat="45.99228" lon="6.47328">
        <ele>1641.6</ele>
        <time>2014-03-02T08:35:42Z</time>
      </trkpt>
      <trkpt lat="45.99235" lon="6.47318">
        <ele>1645</ele>
        <time>2014-03-02T08:36:39Z</time>
      </trkpt>
      <trkpt lat="45.99245" lon="6.47318">
        <ele>1650.7</ele>
        <time>2014-03-02T08:37:04Z</time>
      </trkpt>
      <trkpt lat="45.99263" lon="6.47329">
        <ele>1657.5</ele>
        <time>2014-03-02T08:37:34Z</time>
      </trkpt>
      <trkpt lat="45.99282" lon="6.47348">
        <ele>1661.8</ele>
        <time>2014-03-02T08:38:05Z</time>
      </trkpt>
      <trkpt lat="45.99293" lon="6.47375">
        <ele>1667.1</ele>
        <time>2014-03-02T08:38:39Z</time>
      </trkpt>
      <trkpt lat="45.99303" lon="6.47399">
        <ele>1671.9</ele>
        <time>2014-03-02T08:39:08Z</time>
      </trkpt>
      <trkpt lat="45.99316" lon="6.47417">
        <ele>1678.1</ele>
        <time>2014-03-02T08:39:43Z</time>
      </trkpt>
      <trkpt lat="45.99322" lon="6.47409">
        <ele>1679.6</ele>
        <time>2014-03-02T08:40:00Z</time>
      </trkpt>
      <trkpt lat="45.99337" lon="6.47381">
        <ele>1683.9</ele>
        <time>2014-03-02T08:40:31Z</time>
      </trkpt>
      <trkpt lat="45.99343" lon="6.47394">
        <ele>1687.3</ele>
        <time>2014-03-02T08:40:51Z</time>
      </trkpt>
      <trkpt lat="45.9936" lon="6.47407">
        <ele>1694</ele>
        <time>2014-03-02T08:41:22Z</time>
      </trkpt>
      <trkpt lat="45.99385" lon="6.47426">
        <ele>1700.7</ele>
        <time>2014-03-02T08:42:08Z</time>
      </trkpt>
      <trkpt lat="45.99385" lon="6.47414">
        <ele>1703.1</ele>
        <time>2014-03-02T08:42:22Z</time>
      </trkpt>
      <trkpt lat="45.99392" lon="6.47405">
        <ele>1706</ele>
        <time>2014-03-02T08:42:41Z</time>
      </trkpt>
      <trkpt lat="45.99405" lon="6.47415">
        <ele>1710.8</ele>
        <time>2014-03-02T08:43:07Z</time>
      </trkpt>
      <trkpt lat="45.99417" lon="6.47422">
        <ele>1714.6</ele>
        <time>2014-03-02T08:43:31Z</time>
      </trkpt>
      <trkpt lat="45.99423" lon="6.47424">
        <ele>1716.1</ele>
        <time>2014-03-02T08:43:49Z</time>
      </trkpt>
      <trkpt lat="45.99427" lon="6.4741">
        <ele>1716.6</ele>
        <time>2014-03-02T08:44:06Z</time>
      </trkpt>
      <trkpt lat="45.99436" lon="6.47405">
        <ele>1719.9</ele>
        <time>2014-03-02T08:44:27Z</time>
      </trkpt>
      <trkpt lat="45.99449" lon="6.47428">
        <ele>1727.1</ele>
        <time>2014-03-02T08:45:03Z</time>
      </trkpt>
      <trkpt lat="45.99458" lon="6.47436">
        <ele>1728.6</ele>
        <time>2014-03-02T08:45:22Z</time>
      </trkpt>
      <trkpt lat="45.99468" lon="6.47447">
        <ele>1731.5</ele>
        <time>2014-03-02T08:45:43Z</time>
      </trkpt>
      <trkpt lat="45.99476" lon="6.47457">
        <ele>1734.4</ele>
        <time>2014-03-02T08:46:03Z</time>
      </trkpt>
      <trkpt lat="45.99492" lon="6.47476">
        <ele>1738.2</ele>
        <time>2014-03-02T08:46:32Z</time>
      </trkpt>
      <trkpt lat="45.99506" lon="6.47501">
        <ele>1744</ele>
        <time>2014-03-02T08:47:06Z</time>
      </trkpt>
      <trkpt lat="45.99524" lon="6.47524">
        <ele>1744.9</ele>
        <time>2014-03-02T08:47:37Z</time>
      </trkpt>
      <trkpt lat="45.99548" lon="6.47547">
        <ele>1743.5</ele>
        <time>2014-03-02T08:48:03Z</time>
      </trkpt>
      <trkpt lat="45.99573" lon="6.4756">
        <ele>1742</ele>
        <time>2014-03-02T08:48:14Z</time>
      </trkpt>
      <trkpt lat="45.99584" lon="6.47556">
        <ele>1742</ele>
        <time>2014-03-02T08:48:27Z</time>
      </trkpt>
      <trkpt lat="45.99606" lon="6.47537">
        <ele>1739.6</ele>
        <time>2014-03-02T08:48:47Z</time>
      </trkpt>
      <trkpt lat="45.99615" lon="6.47528">
        <ele>1739.6</ele>
        <time>2014-03-02T08:48:55Z</time>
      </trkpt>
      <trkpt lat="45.99623" lon="6.47524">
        <ele>1742</ele>
        <time>2014-03-02T08:49:12Z</time>
      </trkpt>
      <trkpt lat="45.99631" lon="6.47532">
        <ele>1744</ele>
        <time>2014-03-02T08:49:30Z</time>
      </trkpt>
      <trkpt lat="45.9964" lon="6.47549">
        <ele>1746.4</ele>
        <time>2014-03-02T08:49:54Z</time>
      </trkpt>
      <trkpt lat="45.99645" lon="6.47565">
        <ele>1747.3</ele>
        <time>2014-03-02T08:50:14Z</time>
      </trkpt>
      <trkpt lat="45.99647" lon="6.47571">
        <ele>1747.3</ele>
        <time>2014-03-02T08:50:31Z</time>
      </trkpt>
      <trkpt lat="45.99658" lon="6.47585">
        <ele>1750.2</ele>
        <time>2014-03-02T08:50:52Z</time>
      </trkpt>
      <trkpt lat="45.99659" lon="6.47585">
        <ele>1751.2</ele>
        <time>2014-03-02T08:51:14Z</time>
      </trkpt>
      <trkpt lat="45.99658" lon="6.47567">
        <ele>1754.5</ele>
        <time>2014-03-02T08:51:42Z</time>
      </trkpt>
      <trkpt lat="45.9966" lon="6.47571">
        <ele>1756</ele>
        <time>2014-03-02T08:51:55Z</time>
      </trkpt>
      <trkpt lat="45.9967" lon="6.47578">
        <ele>1759.4</ele>
        <time>2014-03-02T08:52:14Z</time>
      </trkpt>
      <trkpt lat="45.99689" lon="6.4759">
        <ele>1763.2</ele>
        <time>2014-03-02T08:52:42Z</time>
      </trkpt>
      <trkpt lat="45.99703" lon="6.47598">
        <ele>1765.1</ele>
        <time>2014-03-02T08:53:04Z</time>
      </trkpt>
      <trkpt lat="45.99713" lon="6.47607">
        <ele>1765.1</ele>
        <time>2014-03-02T08:53:24Z</time>
      </trkpt>
      <trkpt lat="45.99716" lon="6.4761">
        <ele>1765.1</ele>
        <time>2014-03-02T08:53:40Z</time>
      </trkpt>
      <trkpt lat="45.99712" lon="6.47608">
        <ele>1764.6</ele>
        <time>2014-03-02T08:53:53Z</time>
      </trkpt>
      <trkpt lat="45.99697" lon="6.47605">
        <ele>1760.3</ele>
        <time>2014-03-02T08:54:06Z</time>
      </trkpt>
      <trkpt lat="45.9969" lon="6.47606">
        <ele>1756.5</ele>
        <time>2014-03-02T08:54:11Z</time>
      </trkpt>
      <trkpt lat="45.9969" lon="6.47614">
        <ele>1753.1</ele>
        <time>2014-03-02T08:54:20Z</time>
      </trkpt>
      <trkpt lat="45.99691" lon="6.47614">
        <ele>1753.1</ele>
        <time>2014-03-02T08:54:31Z</time>
      </trkpt>
      <trkpt lat="45.9969" lon="6.47615">
        <ele>1752.1</ele>
        <time>2014-03-02T08:54:45Z</time>
      </trkpt>
      <trkpt lat="45.9969" lon="6.47614">
        <ele>1751.2</ele>
        <time>2014-03-02T08:55:08Z</time>
      </trkpt>
      <trkpt lat="45.99699" lon="6.4762">
        <ele>1751.7</ele>
        <time>2014-03-02T08:55:22Z</time>
      </trkpt>
      <trkpt lat="45.99703" lon="6.47622">
        <ele>1751.7</ele>
        <time>2014-03-02T08:55:28Z</time>
      </trkpt>
      <trkpt lat="45.99717" lon="6.47633">
        <ele>1747.3</ele>
        <time>2014-03-02T08:55:40Z</time>
      </trkpt>
      <trkpt lat="45.99718" lon="6.47632">
        <ele>1746.9</ele>
        <time>2014-03-02T08:56:11Z</time>
      </trkpt>
      <trkpt lat="45.99723" lon="6.47629">
        <ele>1748.3</ele>
        <time>2014-03-02T08:58:28Z</time>
      </trkpt>
      <trkpt lat="45.99741" lon="6.47626">
        <ele>1752.6</ele>
        <time>2014-03-02T08:58:51Z</time>
      </trkpt>
      <trkpt lat="45.9976" lon="6.47636">
        <ele>1758.4</ele>
        <time>2014-03-02T08:59:25Z</time>
      </trkpt>
      <trkpt lat="45.99769" lon="6.47634">
        <ele>1759.4</ele>
        <time>2014-03-02T08:59:38Z</time>
      </trkpt>
      <trkpt lat="45.99782" lon="6.47624">
        <ele>1762.2</ele>
        <time>2014-03-02T08:59:56Z</time>
      </trkpt>
      <trkpt lat="45.99798" lon="6.47619">
        <ele>1764.2</ele>
        <time>2014-03-02T09:00:21Z</time>
      </trkpt>
      <trkpt lat="45.99812" lon="6.47618">
        <ele>1767.5</ele>
        <time>2014-03-02T09:00:41Z</time>
      </trkpt>
      <trkpt lat="45.99824" lon="6.47625">
        <ele>1774.3</ele>
        <time>2014-03-02T09:01:06Z</time>
      </trkpt>
      <trkpt lat="45.99835" lon="6.47636">
        <ele>1778.6</ele>
        <time>2014-03-02T09:01:28Z</time>
      </trkpt>
      <trkpt lat="45.99844" lon="6.47646">
        <ele>1781.5</ele>
        <time>2014-03-02T09:01:50Z</time>
      </trkpt>
      <trkpt lat="45.99855" lon="6.4766">
        <ele>1787.7</ele>
        <time>2014-03-02T09:02:20Z</time>
      </trkpt>
      <trkpt lat="45.99864" lon="6.47648">
        <ele>1792</ele>
        <time>2014-03-02T09:02:52Z</time>
      </trkpt>
      <trkpt lat="45.99866" lon="6.47613">
        <ele>1799.2</ele>
        <time>2014-03-02T09:03:42Z</time>
      </trkpt>
      <trkpt lat="45.99868" lon="6.47602">
        <ele>1803.1</ele>
        <time>2014-03-02T09:04:08Z</time>
      </trkpt>
      <trkpt lat="45.9988" lon="6.47616">
        <ele>1806</ele>
        <time>2014-03-02T09:04:31Z</time>
      </trkpt>
      <trkpt lat="45.99886" lon="6.47619">
        <ele>1808.9</ele>
        <time>2014-03-02T09:04:55Z</time>
      </trkpt>
      <trkpt lat="45.99881" lon="6.47602">
        <ele>1810.8</ele>
        <time>2014-03-02T09:05:17Z</time>
      </trkpt>
      <trkpt lat="45.9989" lon="6.47612">
        <ele>1812.2</ele>
        <time>2014-03-02T09:05:32Z</time>
      </trkpt>
      <trkpt lat="45.9989" lon="6.47607">
        <ele>1814.1</ele>
        <time>2014-03-02T09:05:49Z</time>
      </trkpt>
      <trkpt lat="45.99888" lon="6.47598">
        <ele>1816.1</ele>
        <time>2014-03-02T09:06:04Z</time>
      </trkpt>
      <trkpt lat="45.99896" lon="6.47608">
        <ele>1817</ele>
        <time>2014-03-02T09:06:20Z</time>
      </trkpt>
      <trkpt lat="45.99893" lon="6.47596">
        <ele>1820.4</ele>
        <time>2014-03-02T09:06:35Z</time>
      </trkpt>
      <trkpt lat="45.99894" lon="6.4759">
        <ele>1822.3</ele>
        <time>2014-03-02T09:06:53Z</time>
      </trkpt>
      <trkpt lat="45.99902" lon="6.47601">
        <ele>1824.7</ele>
        <time>2014-03-02T09:07:12Z</time>
      </trkpt>
      <trkpt lat="45.99902" lon="6.47592">
        <ele>1826.6</ele>
        <time>2014-03-02T09:07:27Z</time>
      </trkpt>
      <trkpt lat="45.99897" lon="6.47558">
        <ele>1830.5</ele>
        <time>2014-03-02T09:07:59Z</time>
      </trkpt>
      <trkpt lat="45.99901" lon="6.47562">
        <ele>1832.4</ele>
        <time>2014-03-02T09:08:12Z</time>
      </trkpt>
      <trkpt lat="45.99907" lon="6.4757">
        <ele>1833.9</ele>
        <time>2014-03-02T09:08:31Z</time>
      </trkpt>
      <trkpt lat="45.99908" lon="6.47544">
        <ele>1838.2</ele>
        <time>2014-03-02T09:08:56Z</time>
      </trkpt>
      <trkpt lat="45.99914" lon="6.47522">
        <ele>1842</ele>
        <time>2014-03-02T09:09:21Z</time>
      </trkpt>
      <trkpt lat="45.99919" lon="6.47517">
        <ele>1845.9</ele>
        <time>2014-03-02T09:09:36Z</time>
      </trkpt>
      <trkpt lat="45.99919" lon="6.47516">
        <ele>1845.9</ele>
        <time>2014-03-02T09:10:25Z</time>
      </trkpt>
      <trkpt lat="45.99925" lon="6.47523">
        <ele>1849.2</ele>
        <time>2014-03-02T09:10:54Z</time>
      </trkpt>
      <trkpt lat="45.99932" lon="6.47539">
        <ele>1854.5</ele>
        <time>2014-03-02T09:11:18Z</time>
      </trkpt>
      <trkpt lat="45.99935" lon="6.47539">
        <ele>1855.5</ele>
        <time>2014-03-02T09:11:34Z</time>
      </trkpt>
      <trkpt lat="45.99937" lon="6.47538">
        <ele>1855</ele>
        <time>2014-03-02T09:12:00Z</time>
      </trkpt>
      <trkpt lat="45.99936" lon="6.47538">
        <ele>1855</ele>
        <time>2014-03-02T09:12:26Z</time>
      </trkpt>
      <trkpt lat="45.99935" lon="6.47539">
        <ele>1854.5</ele>
        <time>2014-03-02T09:12:54Z</time>
      </trkpt>
      <trkpt lat="45.99935" lon="6.47538">
        <ele>1854</ele>
        <time>2014-03-02T09:13:20Z</time>
      </trkpt>
      <trkpt lat="45.99941" lon="6.47524">
        <ele>1856.4</ele>
        <time>2014-03-02T09:14:34Z</time>
      </trkpt>
      <trkpt lat="45.99947" lon="6.4751">
        <ele>1860.3</ele>
        <time>2014-03-02T09:14:59Z</time>
      </trkpt>
      <trkpt lat="45.9995" lon="6.47498">
        <ele>1864.1</ele>
        <time>2014-03-02T09:15:18Z</time>
      </trkpt>
      <trkpt lat="45.9995" lon="6.47486">
        <ele>1869.4</ele>
        <time>2014-03-02T09:15:44Z</time>
      </trkpt>
      <trkpt lat="45.99959" lon="6.47492">
        <ele>1872.3</ele>
        <time>2014-03-02T09:16:02Z</time>
      </trkpt>
      <trkpt lat="45.99969" lon="6.47498">
        <ele>1875.7</ele>
        <time>2014-03-02T09:16:19Z</time>
      </trkpt>
      <trkpt lat="45.99973" lon="6.47509">
        <ele>1878.6</ele>
        <time>2014-03-02T09:16:36Z</time>
      </trkpt>
      <trkpt lat="45.99976" lon="6.4752">
        <ele>1878.6</ele>
        <time>2014-03-02T09:16:51Z</time>
      </trkpt>
      <trkpt lat="45.99978" lon="6.4752">
        <ele>1881.9</ele>
        <time>2014-03-02T09:17:09Z</time>
      </trkpt>
      <trkpt lat="45.99982" lon="6.47507">
        <ele>1884.8</ele>
        <time>2014-03-02T09:17:27Z</time>
      </trkpt>
      <trkpt lat="45.99986" lon="6.47488">
        <ele>1889.1</ele>
        <time>2014-03-02T09:17:52Z</time>
      </trkpt>
      <trkpt lat="45.99985" lon="6.47478">
        <ele>1892.5</ele>
        <time>2014-03-02T09:18:11Z</time>
      </trkpt>
      <trkpt lat="45.99995" lon="6.47486">
        <ele>1896.3</ele>
        <time>2014-03-02T09:18:30Z</time>
      </trkpt>
      <trkpt lat="46" lon="6.47498">
        <ele>1898.3</ele>
        <time>2014-03-02T09:18:46Z</time>
      </trkpt>
      <trkpt lat="46.00005" lon="6.47514">
        <ele>1900.7</ele>
        <time>2014-03-02T09:19:05Z</time>
      </trkpt>
      <trkpt lat="46.00009" lon="6.47529">
        <ele>1905</ele>
        <time>2014-03-02T09:19:22Z</time>
      </trkpt>
      <trkpt lat="46.00011" lon="6.47543">
        <ele>1908.4</ele>
        <time>2014-03-02T09:19:38Z</time>
      </trkpt>
      <trkpt lat="46.00009" lon="6.47543">
        <ele>1908.4</ele>
        <time>2014-03-02T09:19:49Z</time>
      </trkpt>
      <trkpt lat="46.0001" lon="6.47539">
        <ele>1907.9</ele>
        <time>2014-03-02T09:20:12Z</time>
      </trkpt>
      <trkpt lat="46.00014" lon="6.47532">
        <ele>1908.8</ele>
        <time>2014-03-02T09:20:24Z</time>
      </trkpt>
      <trkpt lat="46.00021" lon="6.4752">
        <ele>1911.7</ele>
        <time>2014-03-02T09:20:40Z</time>
      </trkpt>
      <trkpt lat="46.00031" lon="6.47507">
        <ele>1915.1</ele>
        <time>2014-03-02T09:21:00Z</time>
      </trkpt>
      <trkpt lat="46.00036" lon="6.47491">
        <ele>1919.4</ele>
        <time>2014-03-02T09:21:23Z</time>
      </trkpt>
      <trkpt lat="46.0004" lon="6.47491">
        <ele>1920.4</ele>
        <time>2014-03-02T09:21:35Z</time>
      </trkpt>
      <trkpt lat="46.00044" lon="6.47501">
        <ele>1922.8</ele>
        <time>2014-03-02T09:21:49Z</time>
      </trkpt>
      <trkpt lat="46.0005" lon="6.47513">
        <ele>1926.1</ele>
        <time>2014-03-02T09:22:06Z</time>
      </trkpt>
      <trkpt lat="46.00055" lon="6.47528">
        <ele>1930.9</ele>
        <time>2014-03-02T09:22:27Z</time>
      </trkpt>
      <trkpt lat="46.00063" lon="6.47543">
        <ele>1935.3</ele>
        <time>2014-03-02T09:22:50Z</time>
      </trkpt>
      <trkpt lat="46.00066" lon="6.47545">
        <ele>1936.7</ele>
        <time>2014-03-02T09:23:03Z</time>
      </trkpt>
      <trkpt lat="46.00072" lon="6.47533">
        <ele>1939.1</ele>
        <time>2014-03-02T09:23:19Z</time>
      </trkpt>
      <trkpt lat="46.00076" lon="6.47522">
        <ele>1941.5</ele>
        <time>2014-03-02T09:23:35Z</time>
      </trkpt>
      <trkpt lat="46.00079" lon="6.47514">
        <ele>1943.4</ele>
        <time>2014-03-02T09:23:52Z</time>
      </trkpt>
      <trkpt lat="46.00089" lon="6.47524">
        <ele>1946.3</ele>
        <time>2014-03-02T09:24:10Z</time>
      </trkpt>
      <trkpt lat="46.00092" lon="6.47515">
        <ele>1948.7</ele>
        <time>2014-03-02T09:24:27Z</time>
      </trkpt>
      <trkpt lat="46.00097" lon="6.47512">
        <ele>1951.1</ele>
        <time>2014-03-02T09:24:41Z</time>
      </trkpt>
      <trkpt lat="46.00114" lon="6.47516">
        <ele>1957.4</ele>
        <time>2014-03-02T09:25:07Z</time>
      </trkpt>
      <trkpt lat="46.00123" lon="6.47517">
        <ele>1960.3</ele>
        <time>2014-03-02T09:25:29Z</time>
      </trkpt>
      <trkpt lat="46.00126" lon="6.47517">
        <ele>1961.2</ele>
        <time>2014-03-02T09:25:50Z</time>
      </trkpt>
      <trkpt lat="46.00125" lon="6.47518">
        <ele>1961.2</ele>
        <time>2014-03-02T09:27:32Z</time>
      </trkpt>
      <trkpt lat="46.00125" lon="6.47518">
        <ele>1961.2</ele>
        <time>2014-03-02T09:28:04Z</time>
      </trkpt>
      <trkpt lat="46.00126" lon="6.47518">
        <ele>1961.7</ele>
        <time>2014-03-02T09:28:57Z</time>
      </trkpt>
      <trkpt lat="46.00126" lon="6.47518">
        <ele>1961.7</ele>
        <time>2014-03-02T09:29:36Z</time>
      </trkpt>
      <trkpt lat="46.00127" lon="6.47518">
        <ele>1962.2</ele>
        <time>2014-03-02T09:32:26Z</time>
      </trkpt>
      <trkpt lat="46.00134" lon="6.47511">
        <ele>1964.6</ele>
        <time>2014-03-02T09:32:41Z</time>
      </trkpt>
      <trkpt lat="46.00148" lon="6.47505">
        <ele>1968</ele>
        <time>2014-03-02T09:33:05Z</time>
      </trkpt>
      <trkpt lat="46.00165" lon="6.47509">
        <ele>1971.8</ele>
        <time>2014-03-02T09:33:32Z</time>
      </trkpt>
      <trkpt lat="46.00176" lon="6.47505">
        <ele>1974.2</ele>
        <time>2014-03-02T09:33:52Z</time>
      </trkpt>
      <trkpt lat="46.00178" lon="6.47494">
        <ele>1976.6</ele>
        <time>2014-03-02T09:34:09Z</time>
      </trkpt>
      <trkpt lat="46.00183" lon="6.47495">
        <ele>1977.6</ele>
        <time>2014-03-02T09:34:21Z</time>
      </trkpt>
      <trkpt lat="46.00191" lon="6.47504">
        <ele>1980.5</ele>
        <time>2014-03-02T09:34:38Z</time>
      </trkpt>
      <trkpt lat="46.00197" lon="6.47515">
        <ele>1984.8</ele>
        <time>2014-03-02T09:34:58Z</time>
      </trkpt>
      <trkpt lat="46.00203" lon="6.47529">
        <ele>1988.6</ele>
        <time>2014-03-02T09:35:17Z</time>
      </trkpt>
      <trkpt lat="46.00206" lon="6.47523">
        <ele>1990.5</ele>
        <time>2014-03-02T09:35:28Z</time>
      </trkpt>
      <trkpt lat="46.0021" lon="6.47508">
        <ele>1994.4</ele>
        <time>2014-03-02T09:35:48Z</time>
      </trkpt>
      <trkpt lat="46.00213" lon="6.47494">
        <ele>1998.2</ele>
        <time>2014-03-02T09:36:05Z</time>
      </trkpt>
      <trkpt lat="46.00214" lon="6.47479">
        <ele>2001.1</ele>
        <time>2014-03-02T09:36:22Z</time>
      </trkpt>
      <trkpt lat="46.0022" lon="6.47483">
        <ele>2003</ele>
        <time>2014-03-02T09:36:36Z</time>
      </trkpt>
      <trkpt lat="46.00227" lon="6.4749">
        <ele>2005</ele>
        <time>2014-03-02T09:36:50Z</time>
      </trkpt>
      <trkpt lat="46.00231" lon="6.47496">
        <ele>2008.3</ele>
        <time>2014-03-02T09:37:08Z</time>
      </trkpt>
      <trkpt lat="46.00232" lon="6.47494">
        <ele>2009.8</ele>
        <time>2014-03-02T09:37:19Z</time>
      </trkpt>
      <trkpt lat="46.00236" lon="6.47483">
        <ele>2012.7</ele>
        <time>2014-03-02T09:37:36Z</time>
      </trkpt>
      <trkpt lat="46.00239" lon="6.47471">
        <ele>2015.1</ele>
        <time>2014-03-02T09:37:52Z</time>
      </trkpt>
      <trkpt lat="46.00243" lon="6.47459">
        <ele>2017.5</ele>
        <time>2014-03-02T09:38:08Z</time>
      </trkpt>
      <trkpt lat="46.00247" lon="6.47441">
        <ele>2021.3</ele>
        <time>2014-03-02T09:38:29Z</time>
      </trkpt>
      <trkpt lat="46.00248" lon="6.47427">
        <ele>2024.2</ele>
        <time>2014-03-02T09:38:47Z</time>
      </trkpt>
      <trkpt lat="46.00247" lon="6.47414">
        <ele>2027.6</ele>
        <time>2014-03-02T09:39:03Z</time>
      </trkpt>
      <trkpt lat="46.00253" lon="6.47413">
        <ele>2029.5</ele>
        <time>2014-03-02T09:39:14Z</time>
      </trkpt>
      <trkpt lat="46.00263" lon="6.47417">
        <ele>2032.8</ele>
        <time>2014-03-02T09:39:33Z</time>
      </trkpt>
      <trkpt lat="46.00272" lon="6.4742">
        <ele>2035.2</ele>
        <time>2014-03-02T09:39:51Z</time>
      </trkpt>
      <trkpt lat="46.00277" lon="6.47423">
        <ele>2038.6</ele>
        <time>2014-03-02T09:40:07Z</time>
      </trkpt>
      <trkpt lat="46.00276" lon="6.47416">
        <ele>2039.6</ele>
        <time>2014-03-02T09:40:18Z</time>
      </trkpt>
      <trkpt lat="46.00276" lon="6.47398">
        <ele>2042.9</ele>
        <time>2014-03-02T09:40:36Z</time>
      </trkpt>
      <trkpt lat="46.00281" lon="6.47393">
        <ele>2044.4</ele>
        <time>2014-03-02T09:40:43Z</time>
      </trkpt>
      <trkpt lat="46.0029" lon="6.47375">
        <ele>2048.7</ele>
        <time>2014-03-02T09:41:05Z</time>
      </trkpt>
      <trkpt lat="46.00289" lon="6.47358">
        <ele>2051.6</ele>
        <time>2014-03-02T09:41:22Z</time>
      </trkpt>
      <trkpt lat="46.00294" lon="6.47348">
        <ele>2054.5</ele>
        <time>2014-03-02T09:41:38Z</time>
      </trkpt>
      <trkpt lat="46.00303" lon="6.47345">
        <ele>2056.9</ele>
        <time>2014-03-02T09:41:53Z</time>
      </trkpt>
      <trkpt lat="46.00313" lon="6.47331">
        <ele>2060.2</ele>
        <time>2014-03-02T09:42:16Z</time>
      </trkpt>
      <trkpt lat="46.00318" lon="6.47316">
        <ele>2063.1</ele>
        <time>2014-03-02T09:42:34Z</time>
      </trkpt>
      <trkpt lat="46.0033" lon="6.473">
        <ele>2066</ele>
        <time>2014-03-02T09:42:58Z</time>
      </trkpt>
      <trkpt lat="46.00334" lon="6.47295">
        <ele>2066.5</ele>
        <time>2014-03-02T09:43:17Z</time>
      </trkpt>
      <trkpt lat="46.00334" lon="6.47294">
        <ele>2066.5</ele>
        <time>2014-03-02T09:43:52Z</time>
      </trkpt>
      <trkpt lat="46.00336" lon="6.47291">
        <ele>2067.5</ele>
        <time>2014-03-02T09:44:18Z</time>
      </trkpt>
      <trkpt lat="46.00335" lon="6.47291">
        <ele>2067.5</ele>
        <time>2014-03-02T09:45:01Z</time>
      </trkpt>
      <trkpt lat="46.00333" lon="6.47291">
        <ele>2067</ele>
        <time>2014-03-02T09:45:38Z</time>
      </trkpt>
      <trkpt lat="46.00333" lon="6.47291">
        <ele>2067.5</ele>
        <time>2014-03-02T09:46:54Z</time>
      </trkpt>
      <trkpt lat="46.00334" lon="6.47293">
        <ele>2066.5</ele>
        <time>2014-03-02T09:47:08Z</time>
      </trkpt>
      <trkpt lat="46.00335" lon="6.47292">
        <ele>2066.5</ele>
        <time>2014-03-02T09:47:46Z</time>
      </trkpt>
      <trkpt lat="46.00336" lon="6.47288">
        <ele>2066.5</ele>
        <time>2014-03-02T09:49:23Z</time>
      </trkpt>
      <trkpt lat="46.00348" lon="6.47261">
        <ele>2071.8</ele>
        <time>2014-03-02T09:49:46Z</time>
      </trkpt>
      <trkpt lat="46.00357" lon="6.47237">
        <ele>2074.7</ele>
        <time>2014-03-02T09:50:08Z</time>
      </trkpt>
      <trkpt lat="46.00363" lon="6.47233">
        <ele>2076.1</ele>
        <time>2014-03-02T09:50:17Z</time>
      </trkpt>
      <trkpt lat="46.00367" lon="6.47233">
        <ele>2076.6</ele>
        <time>2014-03-02T09:50:21Z</time>
      </trkpt>
      <trkpt lat="46.00378" lon="6.47242">
        <ele>2079</ele>
        <time>2014-03-02T09:50:37Z</time>
      </trkpt>
      <trkpt lat="46.00387" lon="6.47256">
        <ele>2083.3</ele>
        <time>2014-03-02T09:50:59Z</time>
      </trkpt>
      <trkpt lat="46.00392" lon="6.47261">
        <ele>2086.7</ele>
        <time>2014-03-02T09:51:15Z</time>
      </trkpt>
      <trkpt lat="46.00397" lon="6.4725">
        <ele>2089.1</ele>
        <time>2014-03-02T09:51:31Z</time>
      </trkpt>
      <trkpt lat="46.00398" lon="6.47258">
        <ele>2091</ele>
        <time>2014-03-02T09:51:42Z</time>
      </trkpt>
      <trkpt lat="46.004" lon="6.47276">
        <ele>2093.9</ele>
        <time>2014-03-02T09:52:00Z</time>
      </trkpt>
      <trkpt lat="46.00403" lon="6.47273">
        <ele>2095.3</ele>
        <time>2014-03-02T09:52:13Z</time>
      </trkpt>
      <trkpt lat="46.00414" lon="6.47255">
        <ele>2097.7</ele>
        <time>2014-03-02T09:52:36Z</time>
      </trkpt>
      <trkpt lat="46.00415" lon="6.47272">
        <ele>2098.7</ele>
        <time>2014-03-02T09:52:49Z</time>
      </trkpt>
      <trkpt lat="46.00416" lon="6.47282">
        <ele>2100.1</ele>
        <time>2014-03-02T09:53:10Z</time>
      </trkpt>
      <trkpt lat="46.00418" lon="6.47292">
        <ele>2100.1</ele>
        <time>2014-03-02T09:53:29Z</time>
      </trkpt>
      <trkpt lat="46.00423" lon="6.47282">
        <ele>2102.5</ele>
        <time>2014-03-02T09:53:42Z</time>
      </trkpt>
      <trkpt lat="46.00429" lon="6.47278">
        <ele>2105.4</ele>
        <time>2014-03-02T09:54:03Z</time>
      </trkpt>
      <trkpt lat="46.00431" lon="6.47274">
        <ele>2106.9</ele>
        <time>2014-03-02T09:54:14Z</time>
      </trkpt>
      <trkpt lat="46.00437" lon="6.47258">
        <ele>2110.2</ele>
        <time>2014-03-02T09:54:32Z</time>
      </trkpt>
      <trkpt lat="46.00441" lon="6.47238">
        <ele>2113.1</ele>
        <time>2014-03-02T09:54:52Z</time>
      </trkpt>
      <trkpt lat="46.00443" lon="6.47243">
        <ele>2114.6</ele>
        <time>2014-03-02T09:55:03Z</time>
      </trkpt>
      <trkpt lat="46.00448" lon="6.47265">
        <ele>2119.4</ele>
        <time>2014-03-02T09:55:26Z</time>
      </trkpt>
      <trkpt lat="46.00452" lon="6.47275">
        <ele>2123.2</ele>
        <time>2014-03-02T09:55:48Z</time>
      </trkpt>
      <trkpt lat="46.00455" lon="6.47265">
        <ele>2124.7</ele>
        <time>2014-03-02T09:56:01Z</time>
      </trkpt>
      <trkpt lat="46.00458" lon="6.47254">
        <ele>2126.1</ele>
        <time>2014-03-02T09:56:16Z</time>
      </trkpt>
      <trkpt lat="46.0046" lon="6.47245">
        <ele>2128</ele>
        <time>2014-03-02T09:56:29Z</time>
      </trkpt>
      <trkpt lat="46.00461" lon="6.47239">
        <ele>2130.9</ele>
        <time>2014-03-02T09:56:43Z</time>
      </trkpt>
      <trkpt lat="46.00466" lon="6.47228">
        <ele>2133.3</ele>
        <time>2014-03-02T09:57:03Z</time>
      </trkpt>
      <trkpt lat="46.00469" lon="6.47224">
        <ele>2134.3</ele>
        <time>2014-03-02T09:57:23Z</time>
      </trkpt>
      <trkpt lat="46.00471" lon="6.47229">
        <ele>2135.7</ele>
        <time>2014-03-02T09:57:36Z</time>
      </trkpt>
      <trkpt lat="46.00474" lon="6.47243">
        <ele>2137.6</ele>
        <time>2014-03-02T09:57:53Z</time>
      </trkpt>
      <trkpt lat="46.00477" lon="6.47257">
        <ele>2139.6</ele>
        <time>2014-03-02T09:58:11Z</time>
      </trkpt>
      <trkpt lat="46.00479" lon="6.47271">
        <ele>2141</ele>
        <time>2014-03-02T09:58:31Z</time>
      </trkpt>
      <trkpt lat="46.0048" lon="6.47289">
        <ele>2143.4</ele>
        <time>2014-03-02T09:58:55Z</time>
      </trkpt>
      <trkpt lat="46.00483" lon="6.47305">
        <ele>2145.3</ele>
        <time>2014-03-02T09:59:25Z</time>
      </trkpt>
      <trkpt lat="46.00485" lon="6.47298">
        <ele>2147.2</ele>
        <time>2014-03-02T09:59:36Z</time>
      </trkpt>
      <trkpt lat="46.00489" lon="6.47287">
        <ele>2149.6</ele>
        <time>2014-03-02T09:59:52Z</time>
      </trkpt>
      <trkpt lat="46.00491" lon="6.47277">
        <ele>2151.6</ele>
        <time>2014-03-02T10:00:05Z</time>
      </trkpt>
      <trkpt lat="46.00494" lon="6.47271">
        <ele>2154.5</ele>
        <time>2014-03-02T10:00:21Z</time>
      </trkpt>
      <trkpt lat="46.00497" lon="6.47284">
        <ele>2155.9</ele>
        <time>2014-03-02T10:00:39Z</time>
      </trkpt>
      <trkpt lat="46.00499" lon="6.47292">
        <ele>2157.8</ele>
        <time>2014-03-02T10:00:54Z</time>
      </trkpt>
      <trkpt lat="46.00501" lon="6.47278">
        <ele>2159.7</ele>
        <time>2014-03-02T10:01:10Z</time>
      </trkpt>
      <trkpt lat="46.00503" lon="6.47271">
        <ele>2161.7</ele>
        <time>2014-03-02T10:01:23Z</time>
      </trkpt>
      <trkpt lat="46.00506" lon="6.47279">
        <ele>2164.1</ele>
        <time>2014-03-02T10:01:36Z</time>
      </trkpt>
      <trkpt lat="46.00508" lon="6.47291">
        <ele>2166.9</ele>
        <time>2014-03-02T10:01:52Z</time>
      </trkpt>
      <trkpt lat="46.0051" lon="6.47292">
        <ele>2167.4</ele>
        <time>2014-03-02T10:02:06Z</time>
      </trkpt>
      <trkpt lat="46.00513" lon="6.47275">
        <ele>2169.8</ele>
        <time>2014-03-02T10:02:23Z</time>
      </trkpt>
      <trkpt lat="46.00517" lon="6.47263">
        <ele>2172.2</ele>
        <time>2014-03-02T10:02:38Z</time>
      </trkpt>
      <trkpt lat="46.00521" lon="6.4725">
        <ele>2175.1</ele>
        <time>2014-03-02T10:02:55Z</time>
      </trkpt>
      <trkpt lat="46.00522" lon="6.47258">
        <ele>2177</ele>
        <time>2014-03-02T10:03:05Z</time>
      </trkpt>
      <trkpt lat="46.00526" lon="6.47274">
        <ele>2179.9</ele>
        <time>2014-03-02T10:03:22Z</time>
      </trkpt>
      <trkpt lat="46.00528" lon="6.47275">
        <ele>2183.3</ele>
        <time>2014-03-02T10:03:40Z</time>
      </trkpt>
      <trkpt lat="46.00534" lon="6.47258">
        <ele>2186.7</ele>
        <time>2014-03-02T10:03:58Z</time>
      </trkpt>
      <trkpt lat="46.0054" lon="6.47242">
        <ele>2189.5</ele>
        <time>2014-03-02T10:04:16Z</time>
      </trkpt>
      <trkpt lat="46.00544" lon="6.47242">
        <ele>2192.9</ele>
        <time>2014-03-02T10:04:32Z</time>
      </trkpt>
      <trkpt lat="46.00548" lon="6.47263">
        <ele>2195.8</ele>
        <time>2014-03-02T10:04:52Z</time>
      </trkpt>
      <trkpt lat="46.0055" lon="6.47272">
        <ele>2196.7</ele>
        <time>2014-03-02T10:05:05Z</time>
      </trkpt>
      <trkpt lat="46.00554" lon="6.47259">
        <ele>2199.2</ele>
        <time>2014-03-02T10:05:18Z</time>
      </trkpt>
      <trkpt lat="46.00559" lon="6.47243">
        <ele>2201.6</ele>
        <time>2014-03-02T10:05:36Z</time>
      </trkpt>
      <trkpt lat="46.00562" lon="6.47249">
        <ele>2202</ele>
        <time>2014-03-02T10:05:47Z</time>
      </trkpt>
      <trkpt lat="46.00566" lon="6.47278">
        <ele>2206.8</ele>
        <time>2014-03-02T10:06:15Z</time>
      </trkpt>
      <trkpt lat="46.0057" lon="6.47296">
        <ele>2209.7</ele>
        <time>2014-03-02T10:06:34Z</time>
      </trkpt>
      <trkpt lat="46.00572" lon="6.47304">
        <ele>2210.2</ele>
        <time>2014-03-02T10:06:47Z</time>
      </trkpt>
      <trkpt lat="46.00576" lon="6.47293">
        <ele>2212.6</ele>
        <time>2014-03-02T10:07:02Z</time>
      </trkpt>
      <trkpt lat="46.00577" lon="6.47297">
        <ele>2214.5</ele>
        <time>2014-03-02T10:07:14Z</time>
      </trkpt>
      <trkpt lat="46.00581" lon="6.47309">
        <ele>2215</ele>
        <time>2014-03-02T10:07:26Z</time>
      </trkpt>
      <trkpt lat="46.00586" lon="6.47315">
        <ele>2215</ele>
        <time>2014-03-02T10:07:40Z</time>
      </trkpt>
      <trkpt lat="46.00585" lon="6.47315">
        <ele>2216.5</ele>
        <time>2014-03-02T10:07:50Z</time>
      </trkpt>
      <trkpt lat="46.0059" lon="6.47309">
        <ele>2218.9</ele>
        <time>2014-03-02T10:08:10Z</time>
      </trkpt>
      <trkpt lat="46.00592" lon="6.47321">
        <ele>2218.9</ele>
        <time>2014-03-02T10:08:23Z</time>
      </trkpt>
      <trkpt lat="46.00594" lon="6.47316">
        <ele>2221.3</ele>
        <time>2014-03-02T10:08:37Z</time>
      </trkpt>
      <trkpt lat="46.00596" lon="6.47317">
        <ele>2222.2</ele>
        <time>2014-03-02T10:08:47Z</time>
      </trkpt>
      <trkpt lat="46.00598" lon="6.47322">
        <ele>2223.7</ele>
        <time>2014-03-02T10:08:58Z</time>
      </trkpt>
      <trkpt lat="46.00602" lon="6.47318">
        <ele>2225.6</ele>
        <time>2014-03-02T10:09:14Z</time>
      </trkpt>
      <trkpt lat="46.00603" lon="6.47324">
        <ele>2226.1</ele>
        <time>2014-03-02T10:09:30Z</time>
      </trkpt>
      <trkpt lat="46.00602" lon="6.47324">
        <ele>2226.6</ele>
        <time>2014-03-02T10:09:57Z</time>
      </trkpt>
      <trkpt lat="46.00606" lon="6.47319">
        <ele>2228.5</ele>
        <time>2014-03-02T10:10:20Z</time>
      </trkpt>
      <trkpt lat="46.00606" lon="6.47327">
        <ele>2228.5</ele>
        <time>2014-03-02T10:10:31Z</time>
      </trkpt>
      <trkpt lat="46.0061" lon="6.47318">
        <ele>2229.4</ele>
        <time>2014-03-02T10:10:43Z</time>
      </trkpt>
      <trkpt lat="46.00613" lon="6.47313">
        <ele>2232.3</ele>
        <time>2014-03-02T10:10:59Z</time>
      </trkpt>
      <trkpt lat="46.00614" lon="6.47317">
        <ele>2233.3</ele>
        <time>2014-03-02T10:11:05Z</time>
      </trkpt>
      <trkpt lat="46.00614" lon="6.47322">
        <ele>2235.2</ele>
        <time>2014-03-02T10:11:19Z</time>
      </trkpt>
      <trkpt lat="46.00617" lon="6.47313">
        <ele>2237.1</ele>
        <time>2014-03-02T10:11:36Z</time>
      </trkpt>
      <trkpt lat="46.00618" lon="6.47328">
        <ele>2239</ele>
        <time>2014-03-02T10:11:51Z</time>
      </trkpt>
      <trkpt lat="46.00622" lon="6.47327">
        <ele>2239.5</ele>
        <time>2014-03-02T10:12:09Z</time>
      </trkpt>
      <trkpt lat="46.00624" lon="6.47321">
        <ele>2241.9</ele>
        <time>2014-03-02T10:12:28Z</time>
      </trkpt>
      <trkpt lat="46.00627" lon="6.47326">
        <ele>2243.4</ele>
        <time>2014-03-02T10:12:45Z</time>
      </trkpt>
      <trkpt lat="46.0063" lon="6.47319">
        <ele>2245.3</ele>
        <time>2014-03-02T10:13:05Z</time>
      </trkpt>
      <trkpt lat="46.0063" lon="6.4732">
        <ele>2245.8</ele>
        <time>2014-03-02T10:13:11Z</time>
      </trkpt>
      <trkpt lat="46.00633" lon="6.47334">
        <ele>2245.8</ele>
        <time>2014-03-02T10:13:30Z</time>
      </trkpt>
      <trkpt lat="46.00636" lon="6.47325">
        <ele>2250.1</ele>
        <time>2014-03-02T10:13:43Z</time>
      </trkpt>
      <trkpt lat="46.00636" lon="6.47336">
        <ele>2252.5</ele>
        <time>2014-03-02T10:13:55Z</time>
      </trkpt>
      <trkpt lat="46.00636" lon="6.47341">
        <ele>2254.4</ele>
        <time>2014-03-02T10:14:10Z</time>
      </trkpt>
      <trkpt lat="46.00636" lon="6.47344">
        <ele>2258.3</ele>
        <time>2014-03-02T10:14:22Z</time>
      </trkpt>
      <trkpt lat="46.00635" lon="6.47359">
        <ele>2259.2</ele>
        <time>2014-03-02T10:14:36Z</time>
      </trkpt>
      <trkpt lat="46.00634" lon="6.47367">
        <ele>2259.2</ele>
        <time>2014-03-02T10:14:48Z</time>
      </trkpt>
      <trkpt lat="46.00634" lon="6.47368">
        <ele>2259.2</ele>
        <time>2014-03-02T10:15:11Z</time>
      </trkpt>
      <trkpt lat="46.00634" lon="6.47368">
        <ele>2259.7</ele>
        <time>2014-03-02T10:15:30Z</time>
      </trkpt>
      <trkpt lat="46.00634" lon="6.47368">
        <ele>2260.2</ele>
        <time>2014-03-02T10:15:46Z</time>
      </trkpt>
      <trkpt lat="46.00632" lon="6.47368">
        <ele>2262.6</ele>
        <time>2014-03-02T10:15:57Z</time>
      </trkpt>
      <trkpt lat="46.00632" lon="6.47367">
        <ele>2264</ele>
        <time>2014-03-02T10:16:23Z</time>
      </trkpt>
      <trkpt lat="46.00621" lon="6.47363">
        <ele>2267.9</ele>
        <time>2014-03-02T10:24:15Z</time>
      </trkpt>
      <trkpt lat="46.00624" lon="6.47364">
        <ele>2267.4</ele>
        <time>2014-03-02T10:30:49Z</time>
      </trkpt>
      <trkpt lat="46.00627" lon="6.47364">
        <ele>2271.3</ele>
        <time>2014-03-02T10:32:47Z</time>
      </trkpt>
      <trkpt lat="46.00628" lon="6.47366">
        <ele>2273.2</ele>
        <time>2014-03-02T10:33:07Z</time>
      </trkpt>
      <trkpt lat="46.00628" lon="6.47366">
        <ele>2273.2</ele>
        <time>2014-03-02T10:33:56Z</time>
      </trkpt>
      <trkpt lat="46.00629" lon="6.47368">
        <ele>2272.7</ele>
        <time>2014-03-02T10:34:36Z</time>
      </trkpt>
      <trkpt lat="46.00628" lon="6.47369">
        <ele>2272.7</ele>
        <time>2014-03-02T10:35:07Z</time>
      </trkpt>
      <trkpt lat="46.00629" lon="6.47367">
        <ele>2273.7</ele>
        <time>2014-03-02T10:35:43Z</time>
      </trkpt>
      <trkpt lat="46.00628" lon="6.47368">
        <ele>2273.7</ele>
        <time>2014-03-02T10:36:42Z</time>
      </trkpt>
      <trkpt lat="46.0063" lon="6.47368">
        <ele>2274.1</ele>
        <time>2014-03-02T10:37:28Z</time>
      </trkpt>
      <trkpt lat="46.00631" lon="6.4737">
        <ele>2274.1</ele>
        <time>2014-03-02T10:37:53Z</time>
      </trkpt>
      <trkpt lat="46.00631" lon="6.4737">
        <ele>2273.2</ele>
        <time>2014-03-02T10:38:21Z</time>
      </trkpt>
      <trkpt lat="46.0063" lon="6.47369">
        <ele>2272.7</ele>
        <time>2014-03-02T10:38:48Z</time>
      </trkpt>
      <trkpt lat="46.0063" lon="6.4737">
        <ele>2272.7</ele>
        <time>2014-03-02T10:39:31Z</time>
      </trkpt>
      <trkpt lat="46.0063" lon="6.47371">
        <ele>2272.7</ele>
        <time>2014-03-02T10:39:36Z</time>
      </trkpt>
      <trkpt lat="46.00629" lon="6.47376">
        <ele>2270.3</ele>
        <time>2014-03-02T10:39:48Z</time>
      </trkpt>
      <trkpt lat="46.00631" lon="6.47381">
        <ele>2266.9</ele>
        <time>2014-03-02T10:40:01Z</time>
      </trkpt>
      <trkpt lat="46.00631" lon="6.4738">
        <ele>2266.9</ele>
        <time>2014-03-02T10:40:26Z</time>
      </trkpt>
      <trkpt lat="46.00631" lon="6.4738">
        <ele>2266.9</ele>
        <time>2014-03-02T10:40:58Z</time>
      </trkpt>
      <trkpt lat="46.00639" lon="6.47391">
        <ele>2264</ele>
        <time>2014-03-02T10:41:02Z</time>
      </trkpt>
      <trkpt lat="46.00644" lon="6.47395">
        <ele>2262.1</ele>
        <time>2014-03-02T10:41:04Z</time>
      </trkpt>
      <trkpt lat="46.00643" lon="6.47406">
        <ele>2255.4</ele>
        <time>2014-03-02T10:41:08Z</time>
      </trkpt>
      <trkpt lat="46.0064" lon="6.47421">
        <ele>2246.3</ele>
        <time>2014-03-02T10:41:13Z</time>
      </trkpt>
      <trkpt lat="46.00637" lon="6.47427">
        <ele>2238.1</ele>
        <time>2014-03-02T10:41:20Z</time>
      </trkpt>
      <trkpt lat="46.00638" lon="6.47427">
        <ele>2238.1</ele>
        <time>2014-03-02T10:41:49Z</time>
      </trkpt>
      <trkpt lat="46.00637" lon="6.47428">
        <ele>2238.1</ele>
        <time>2014-03-02T10:41:51Z</time>
      </trkpt>
      <trkpt lat="46.00641" lon="6.47441">
        <ele>2231.8</ele>
        <time>2014-03-02T10:41:55Z</time>
      </trkpt>
      <trkpt lat="46.00635" lon="6.47455">
        <ele>2222.7</ele>
        <time>2014-03-02T10:42:00Z</time>
      </trkpt>
      <trkpt lat="46.00628" lon="6.47467">
        <ele>2218.4</ele>
        <time>2014-03-02T10:42:10Z</time>
      </trkpt>
      <trkpt lat="46.00628" lon="6.47467">
        <ele>2217.9</ele>
        <time>2014-03-02T10:43:08Z</time>
      </trkpt>
      <trkpt lat="46.00626" lon="6.47484">
        <ele>2208.8</ele>
        <time>2014-03-02T10:43:14Z</time>
      </trkpt>
      <trkpt lat="46.00628" lon="6.47488">
        <ele>2206.4</ele>
        <time>2014-03-02T10:43:15Z</time>
      </trkpt>
      <trkpt lat="46.00628" lon="6.47515">
        <ele>2195.8</ele>
        <time>2014-03-02T10:43:22Z</time>
      </trkpt>
      <trkpt lat="46.00628" lon="6.4752">
        <ele>2192.4</ele>
        <time>2014-03-02T10:43:27Z</time>
      </trkpt>
      <trkpt lat="46.00628" lon="6.4752">
        <ele>2191.5</ele>
        <time>2014-03-02T10:45:11Z</time>
      </trkpt>
      <trkpt lat="46.00629" lon="6.47531">
        <ele>2184.7</ele>
        <time>2014-03-02T10:45:15Z</time>
      </trkpt>
      <trkpt lat="46.00652" lon="6.4756">
        <ele>2170.3</ele>
        <time>2014-03-02T10:45:22Z</time>
      </trkpt>
      <trkpt lat="46.00655" lon="6.47576">
        <ele>2164.1</ele>
        <time>2014-03-02T10:45:25Z</time>
      </trkpt>
      <trkpt lat="46.00655" lon="6.47616">
        <ele>2145.3</ele>
        <time>2014-03-02T10:45:31Z</time>
      </trkpt>
      <trkpt lat="46.00653" lon="6.47633">
        <ele>2132.3</ele>
        <time>2014-03-02T10:45:34Z</time>
      </trkpt>
      <trkpt lat="46.00651" lon="6.47653">
        <ele>2120.8</ele>
        <time>2014-03-02T10:45:37Z</time>
      </trkpt>
      <trkpt lat="46.0064" lon="6.47679">
        <ele>2105.9</ele>
        <time>2014-03-02T10:45:41Z</time>
      </trkpt>
      <trkpt lat="46.00626" lon="6.47698">
        <ele>2108.3</ele>
        <time>2014-03-02T10:45:44Z</time>
      </trkpt>
      <trkpt lat="46.00619" lon="6.47714">
        <ele>2105.4</ele>
        <time>2014-03-02T10:45:52Z</time>
      </trkpt>
      <trkpt lat="46.0062" lon="6.4773">
        <ele>2103.5</ele>
        <time>2014-03-02T10:46:10Z</time>
      </trkpt>
      <trkpt lat="46.00621" lon="6.47735">
        <ele>2102.5</ele>
        <time>2014-03-02T10:46:16Z</time>
      </trkpt>
      <trkpt lat="46.00624" lon="6.47754">
        <ele>2098.2</ele>
        <time>2014-03-02T10:46:30Z</time>
      </trkpt>
      <trkpt lat="46.00624" lon="6.47762">
        <ele>2095.3</ele>
        <time>2014-03-02T10:47:12Z</time>
      </trkpt>
      <trkpt lat="46.00624" lon="6.47762">
        <ele>2095.3</ele>
        <time>2014-03-02T10:47:55Z</time>
      </trkpt>
      <trkpt lat="46.00632" lon="6.47768">
        <ele>2090.5</ele>
        <time>2014-03-02T10:47:59Z</time>
      </trkpt>
      <trkpt lat="46.00643" lon="6.47777">
        <ele>2085.2</ele>
        <time>2014-03-02T10:48:02Z</time>
      </trkpt>
      <trkpt lat="46.00654" lon="6.47792">
        <ele>2079.5</ele>
        <time>2014-03-02T10:48:06Z</time>
      </trkpt>
      <trkpt lat="46.00662" lon="6.47799">
        <ele>2075.6</ele>
        <time>2014-03-02T10:48:09Z</time>
      </trkpt>
      <trkpt lat="46.00667" lon="6.478">
        <ele>2073.7</ele>
        <time>2014-03-02T10:48:17Z</time>
      </trkpt>
      <trkpt lat="46.00677" lon="6.47813">
        <ele>2066.5</ele>
        <time>2014-03-02T10:48:21Z</time>
      </trkpt>
      <trkpt lat="46.00685" lon="6.47822">
        <ele>2063.1</ele>
        <time>2014-03-02T10:48:23Z</time>
      </trkpt>
      <trkpt lat="46.00691" lon="6.47839">
        <ele>2056.9</ele>
        <time>2014-03-02T10:48:26Z</time>
      </trkpt>
      <trkpt lat="46.00699" lon="6.47853">
        <ele>2051.6</ele>
        <time>2014-03-02T10:48:29Z</time>
      </trkpt>
      <trkpt lat="46.00714" lon="6.4787">
        <ele>2031.9</ele>
        <time>2014-03-02T10:48:34Z</time>
      </trkpt>
      <trkpt lat="46.00725" lon="6.47902">
        <ele>2020.8</ele>
        <time>2014-03-02T10:48:39Z</time>
      </trkpt>
      <trkpt lat="46.00739" lon="6.47963">
        <ele>2002.1</ele>
        <time>2014-03-02T10:48:46Z</time>
      </trkpt>
      <trkpt lat="46.00742" lon="6.47976">
        <ele>1999.7</ele>
        <time>2014-03-02T10:48:47Z</time>
      </trkpt>
      <trkpt lat="46.00754" lon="6.48001">
        <ele>1997.8</ele>
        <time>2014-03-02T10:48:53Z</time>
      </trkpt>
      <trkpt lat="46.00754" lon="6.48">
        <ele>1997.3</ele>
        <time>2014-03-02T10:49:40Z</time>
      </trkpt>
      <trkpt lat="46.00755" lon="6.48">
        <ele>1997.3</ele>
        <time>2014-03-02T10:50:02Z</time>
      </trkpt>
      <trkpt lat="46.00756" lon="6.48">
        <ele>1996.8</ele>
        <time>2014-03-02T10:50:32Z</time>
      </trkpt>
      <trkpt lat="46.00755" lon="6.48001">
        <ele>1995.8</ele>
        <time>2014-03-02T10:50:56Z</time>
      </trkpt>
      <trkpt lat="46.00756" lon="6.47997">
        <ele>1996.8</ele>
        <time>2014-03-02T10:55:47Z</time>
      </trkpt>
      <trkpt lat="46.00755" lon="6.47997">
        <ele>1994.4</ele>
        <time>2014-03-02T10:56:14Z</time>
      </trkpt>
      <trkpt lat="46.00755" lon="6.47997">
        <ele>1992.5</ele>
        <time>2014-03-02T10:56:32Z</time>
      </trkpt>
      <trkpt lat="46.00753" lon="6.47997">
        <ele>1991.5</ele>
        <time>2014-03-02T10:56:52Z</time>
      </trkpt>
      <trkpt lat="46.00755" lon="6.47997">
        <ele>1990.1</ele>
        <time>2014-03-02T10:57:07Z</time>
      </trkpt>
      <trkpt lat="46.00752" lon="6.47999">
        <ele>1990.1</ele>
        <time>2014-03-02T10:57:34Z</time>
      </trkpt>
      <trkpt lat="46.00757" lon="6.48">
        <ele>1988.1</ele>
        <time>2014-03-02T10:58:27Z</time>
      </trkpt>
      <trkpt lat="46.00759" lon="6.48002">
        <ele>1987.7</ele>
        <time>2014-03-02T10:59:04Z</time>
      </trkpt>
      <trkpt lat="46.00769" lon="6.4802">
        <ele>1989.6</ele>
        <time>2014-03-02T10:59:29Z</time>
      </trkpt>
      <trkpt lat="46.00782" lon="6.48041">
        <ele>1992</ele>
        <time>2014-03-02T11:00:01Z</time>
      </trkpt>
      <trkpt lat="46.00786" lon="6.48052">
        <ele>1994.9</ele>
        <time>2014-03-02T11:00:25Z</time>
      </trkpt>
      <trkpt lat="46.00792" lon="6.48089">
        <ele>2004</ele>
        <time>2014-03-02T11:01:20Z</time>
      </trkpt>
      <trkpt lat="46.00792" lon="6.48119">
        <ele>2012.2</ele>
        <time>2014-03-02T11:02:10Z</time>
      </trkpt>
      <trkpt lat="46.00791" lon="6.4814">
        <ele>2019.4</ele>
        <time>2014-03-02T11:02:50Z</time>
      </trkpt>
      <trkpt lat="46.00789" lon="6.48149">
        <ele>2021.8</ele>
        <time>2014-03-02T11:03:12Z</time>
      </trkpt>
      <trkpt lat="46.00787" lon="6.48159">
        <ele>2026.6</ele>
        <time>2014-03-02T11:03:37Z</time>
      </trkpt>
      <trkpt lat="46.00792" lon="6.48158">
        <ele>2029</ele>
        <time>2014-03-02T11:03:57Z</time>
      </trkpt>
      <trkpt lat="46.00799" lon="6.48157">
        <ele>2032.4</ele>
        <time>2014-03-02T11:04:20Z</time>
      </trkpt>
      <trkpt lat="46.00809" lon="6.48157">
        <ele>2037.2</ele>
        <time>2014-03-02T11:04:51Z</time>
      </trkpt>
      <trkpt lat="46.00816" lon="6.48156">
        <ele>2041.5</ele>
        <time>2014-03-02T11:05:14Z</time>
      </trkpt>
      <trkpt lat="46.00815" lon="6.48163">
        <ele>2042.9</ele>
        <time>2014-03-02T11:05:26Z</time>
      </trkpt>
      <trkpt lat="46.00813" lon="6.48169">
        <ele>2044.9</ele>
        <time>2014-03-02T11:05:41Z</time>
      </trkpt>
      <trkpt lat="46.00811" lon="6.48177">
        <ele>2047.7</ele>
        <time>2014-03-02T11:06:03Z</time>
      </trkpt>
      <trkpt lat="46.0081" lon="6.48181">
        <ele>2049.2</ele>
        <time>2014-03-02T11:06:35Z</time>
      </trkpt>
      <trkpt lat="46.00807" lon="6.48192">
        <ele>2052.6</ele>
        <time>2014-03-02T11:07:00Z</time>
      </trkpt>
      <trkpt lat="46.00804" lon="6.482">
        <ele>2055</ele>
        <time>2014-03-02T11:07:18Z</time>
      </trkpt>
      <trkpt lat="46.00802" lon="6.48205">
        <ele>2057.8</ele>
        <time>2014-03-02T11:07:43Z</time>
      </trkpt>
      <trkpt lat="46.00808" lon="6.482">
        <ele>2060.2</ele>
        <time>2014-03-02T11:08:02Z</time>
      </trkpt>
      <trkpt lat="46.00821" lon="6.48197">
        <ele>2062.6</ele>
        <time>2014-03-02T11:08:28Z</time>
      </trkpt>
      <trkpt lat="46.00817" lon="6.48207">
        <ele>2064.1</ele>
        <time>2014-03-02T11:08:44Z</time>
      </trkpt>
      <trkpt lat="46.00811" lon="6.48216">
        <ele>2066</ele>
        <time>2014-03-02T11:09:01Z</time>
      </trkpt>
      <trkpt lat="46.00811" lon="6.48218">
        <ele>2067</ele>
        <time>2014-03-02T11:09:12Z</time>
      </trkpt>
      <trkpt lat="46.00815" lon="6.48224">
        <ele>2070.3</ele>
        <time>2014-03-02T11:09:28Z</time>
      </trkpt>
      <trkpt lat="46.00825" lon="6.48234">
        <ele>2076.6</ele>
        <time>2014-03-02T11:10:00Z</time>
      </trkpt>
      <trkpt lat="46.00838" lon="6.48247">
        <ele>2081.9</ele>
        <time>2014-03-02T11:10:36Z</time>
      </trkpt>
      <trkpt lat="46.00855" lon="6.48269">
        <ele>2090</ele>
        <time>2014-03-02T11:11:27Z</time>
      </trkpt>
      <trkpt lat="46.00865" lon="6.4827">
        <ele>2096.3</ele>
        <time>2014-03-02T11:11:56Z</time>
      </trkpt>
      <trkpt lat="46.00872" lon="6.4827">
        <ele>2098.2</ele>
        <time>2014-03-02T11:12:11Z</time>
      </trkpt>
      <trkpt lat="46.00872" lon="6.48273">
        <ele>2098.7</ele>
        <time>2014-03-02T11:12:28Z</time>
      </trkpt>
      <trkpt lat="46.00874" lon="6.48277">
        <ele>2100.6</ele>
        <time>2014-03-02T11:13:06Z</time>
      </trkpt>
      <trkpt lat="46.00887" lon="6.48289">
        <ele>2104</ele>
        <time>2014-03-02T11:13:31Z</time>
      </trkpt>
      <trkpt lat="46.00889" lon="6.48298">
        <ele>2103.5</ele>
        <time>2014-03-02T11:13:55Z</time>
      </trkpt>
      <trkpt lat="46.00888" lon="6.48298">
        <ele>2104.5</ele>
        <time>2014-03-02T11:14:14Z</time>
      </trkpt>
      <trkpt lat="46.00888" lon="6.48298">
        <ele>2104</ele>
        <time>2014-03-02T11:14:40Z</time>
      </trkpt>
      <trkpt lat="46.00888" lon="6.48298">
        <ele>2103.5</ele>
        <time>2014-03-02T11:15:14Z</time>
      </trkpt>
      <trkpt lat="46.00888" lon="6.48297">
        <ele>2103</ele>
        <time>2014-03-02T11:16:08Z</time>
      </trkpt>
      <trkpt lat="46.00888" lon="6.48298">
        <ele>2104</ele>
        <time>2014-03-02T11:20:34Z</time>
      </trkpt>
      <trkpt lat="46.00887" lon="6.48299">
        <ele>2103.5</ele>
        <time>2014-03-02T11:21:01Z</time>
      </trkpt>
      <trkpt lat="46.00887" lon="6.48297">
        <ele>2104</ele>
        <time>2014-03-02T11:21:27Z</time>
      </trkpt>
      <trkpt lat="46.00887" lon="6.48297">
        <ele>2103.5</ele>
        <time>2014-03-02T11:22:41Z</time>
      </trkpt>
      <trkpt lat="46.00887" lon="6.48297">
        <ele>2103.5</ele>
        <time>2014-03-02T11:23:24Z</time>
      </trkpt>
      <trkpt lat="46.00888" lon="6.48297">
        <ele>2103</ele>
        <time>2014-03-02T11:23:43Z</time>
      </trkpt>
      <trkpt lat="46.00888" lon="6.48297">
        <ele>2102.5</ele>
        <time>2014-03-02T11:24:03Z</time>
      </trkpt>
      <trkpt lat="46.00888" lon="6.48297">
        <ele>2103</ele>
        <time>2014-03-02T11:24:49Z</time>
      </trkpt>
      <trkpt lat="46.00889" lon="6.48298">
        <ele>2103</ele>
        <time>2014-03-02T11:25:12Z</time>
      </trkpt>
      <trkpt lat="46.00913" lon="6.48286">
        <ele>2098.7</ele>
        <time>2014-03-02T11:25:21Z</time>
      </trkpt>
      <trkpt lat="46.00935" lon="6.48343">
        <ele>2091.5</ele>
        <time>2014-03-02T11:25:27Z</time>
      </trkpt>
      <trkpt lat="46.00959" lon="6.4838">
        <ele>2086.7</ele>
        <time>2014-03-02T11:25:37Z</time>
      </trkpt>
      <trkpt lat="46.00959" lon="6.4838">
        <ele>2085.2</ele>
        <time>2014-03-02T11:25:49Z</time>
      </trkpt>
      <trkpt lat="46.00971" lon="6.48409">
        <ele>2078.5</ele>
        <time>2014-03-02T11:26:11Z</time>
      </trkpt>
      <trkpt lat="46.00976" lon="6.48423">
        <ele>2075.6</ele>
        <time>2014-03-02T11:26:18Z</time>
      </trkpt>
      <trkpt lat="46.00976" lon="6.48423">
        <ele>2075.6</ele>
        <time>2014-03-02T11:26:24Z</time>
      </trkpt>
      <trkpt lat="46.00978" lon="6.48434">
        <ele>2067.9</ele>
        <time>2014-03-02T11:26:30Z</time>
      </trkpt>
      <trkpt lat="46.0097" lon="6.48405">
        <ele>2059.8</ele>
        <time>2014-03-02T11:26:41Z</time>
      </trkpt>
      <trkpt lat="46.00962" lon="6.48386">
        <ele>2056.4</ele>
        <time>2014-03-02T11:27:02Z</time>
      </trkpt>
      <trkpt lat="46.00913" lon="6.48414">
        <ele>2048.7</ele>
        <time>2014-03-02T11:27:12Z</time>
      </trkpt>
      <trkpt lat="46.00907" lon="6.48423">
        <ele>2041.5</ele>
        <time>2014-03-02T11:27:16Z</time>
      </trkpt>
      <trkpt lat="46.00904" lon="6.48427">
        <ele>2036.7</ele>
        <time>2014-03-02T11:27:25Z</time>
      </trkpt>
      <trkpt lat="46.00905" lon="6.48428">
        <ele>2036.7</ele>
        <time>2014-03-02T11:27:32Z</time>
      </trkpt>
      <trkpt lat="46.00925" lon="6.48448">
        <ele>2030.4</ele>
        <time>2014-03-02T11:27:42Z</time>
      </trkpt>
      <trkpt lat="46.00924" lon="6.48447">
        <ele>2030.4</ele>
        <time>2014-03-02T11:27:59Z</time>
      </trkpt>
      <trkpt lat="46.0091" lon="6.48457">
        <ele>2023.2</ele>
        <time>2014-03-02T11:28:04Z</time>
      </trkpt>
      <trkpt lat="46.00901" lon="6.48471">
        <ele>2017</ele>
        <time>2014-03-02T11:28:08Z</time>
      </trkpt>
      <trkpt lat="46.00902" lon="6.48471">
        <ele>2016.5</ele>
        <time>2014-03-02T11:28:31Z</time>
      </trkpt>
      <trkpt lat="46.00903" lon="6.48471">
        <ele>2016.5</ele>
        <time>2014-03-02T11:28:32Z</time>
      </trkpt>
      <trkpt lat="46.00931" lon="6.48519">
        <ele>2000.6</ele>
        <time>2014-03-02T11:28:40Z</time>
      </trkpt>
      <trkpt lat="46.00935" lon="6.48527">
        <ele>1999.2</ele>
        <time>2014-03-02T11:28:41Z</time>
      </trkpt>
      <trkpt lat="46.00938" lon="6.4855">
        <ele>1993.9</ele>
        <time>2014-03-02T11:28:45Z</time>
      </trkpt>
      <trkpt lat="46.00916" lon="6.48582">
        <ele>1978</ele>
        <time>2014-03-02T11:28:53Z</time>
      </trkpt>
      <trkpt lat="46.00901" lon="6.48594">
        <ele>1971.3</ele>
        <time>2014-03-02T11:29:01Z</time>
      </trkpt>
      <trkpt lat="46.00901" lon="6.48594">
        <ele>1970.8</ele>
        <time>2014-03-02T11:30:16Z</time>
      </trkpt>
      <trkpt lat="46.0089" lon="6.48599">
        <ele>1965.6</ele>
        <time>2014-03-02T11:30:19Z</time>
      </trkpt>
      <trkpt lat="46.00881" lon="6.48614">
        <ele>1957.9</ele>
        <time>2014-03-02T11:30:22Z</time>
      </trkpt>
      <trkpt lat="46.00875" lon="6.48618">
        <ele>1955.5</ele>
        <time>2014-03-02T11:30:30Z</time>
      </trkpt>
      <trkpt lat="46.00875" lon="6.48619">
        <ele>1955</ele>
        <time>2014-03-02T11:30:47Z</time>
      </trkpt>
      <trkpt lat="46.00875" lon="6.48619">
        <ele>1955</ele>
        <time>2014-03-02T11:31:35Z</time>
      </trkpt>
      <trkpt lat="46.00873" lon="6.48636">
        <ele>1948.7</ele>
        <time>2014-03-02T11:31:39Z</time>
      </trkpt>
      <trkpt lat="46.00856" lon="6.48675">
        <ele>1936.2</ele>
        <time>2014-03-02T11:31:44Z</time>
      </trkpt>
      <trkpt lat="46.00843" lon="6.48693">
        <ele>1930</ele>
        <time>2014-03-02T11:31:47Z</time>
      </trkpt>
      <trkpt lat="46.00823" lon="6.48723">
        <ele>1919.9</ele>
        <time>2014-03-02T11:31:54Z</time>
      </trkpt>
      <trkpt lat="46.00815" lon="6.4874">
        <ele>1916.5</ele>
        <time>2014-03-02T11:31:57Z</time>
      </trkpt>
      <trkpt lat="46.00795" lon="6.48796">
        <ele>1914.6</ele>
        <time>2014-03-02T11:32:04Z</time>
      </trkpt>
      <trkpt lat="46.00795" lon="6.48796">
        <ele>1914.1</ele>
        <time>2014-03-02T11:32:24Z</time>
      </trkpt>
      <trkpt lat="46.00793" lon="6.48796">
        <ele>1906.4</ele>
        <time>2014-03-02T11:32:31Z</time>
      </trkpt>
      <trkpt lat="46.00755" lon="6.48854">
        <ele>1899.2</ele>
        <time>2014-03-02T11:32:41Z</time>
      </trkpt>
      <trkpt lat="46.00692" lon="6.48767">
        <ele>1893</ele>
        <time>2014-03-02T11:32:49Z</time>
      </trkpt>
      <trkpt lat="46.00676" lon="6.48778">
        <ele>1880.5</ele>
        <time>2014-03-02T11:33:16Z</time>
      </trkpt>
      <trkpt lat="46.00626" lon="6.48852">
        <ele>1865.6</ele>
        <time>2014-03-02T11:33:26Z</time>
      </trkpt>
      <trkpt lat="46.00624" lon="6.48852">
        <ele>1856</ele>
        <time>2014-03-02T11:33:30Z</time>
      </trkpt>
      <trkpt lat="46.00609" lon="6.48856">
        <ele>1847.8</ele>
        <time>2014-03-02T11:33:35Z</time>
      </trkpt>
      <trkpt lat="46.00586" lon="6.48818">
        <ele>1843.5</ele>
        <time>2014-03-02T11:33:42Z</time>
      </trkpt>
      <trkpt lat="46.00585" lon="6.48818">
        <ele>1843.5</ele>
        <time>2014-03-02T11:33:51Z</time>
      </trkpt>
      <trkpt lat="46.00573" lon="6.48837">
        <ele>1836.7</ele>
        <time>2014-03-02T11:33:59Z</time>
      </trkpt>
      <trkpt lat="46.00574" lon="6.48841">
        <ele>1835.3</ele>
        <time>2014-03-02T11:34:14Z</time>
      </trkpt>
      <trkpt lat="46.00574" lon="6.48841">
        <ele>1834.8</ele>
        <time>2014-03-02T11:35:05Z</time>
      </trkpt>
      <trkpt lat="46.00571" lon="6.4884">
        <ele>1831.4</ele>
        <time>2014-03-02T11:35:17Z</time>
      </trkpt>
      <trkpt lat="46.00568" lon="6.4884">
        <ele>1829.5</ele>
        <time>2014-03-02T11:35:24Z</time>
      </trkpt>
      <trkpt lat="46.00555" lon="6.48897">
        <ele>1824.2</ele>
        <time>2014-03-02T11:35:29Z</time>
      </trkpt>
      <trkpt lat="46.00542" lon="6.48893">
        <ele>1815.6</ele>
        <time>2014-03-02T11:35:36Z</time>
      </trkpt>
      <trkpt lat="46.00538" lon="6.48855">
        <ele>1810.8</ele>
        <time>2014-03-02T11:35:46Z</time>
      </trkpt>
      <trkpt lat="46.00531" lon="6.48842">
        <ele>1805.5</ele>
        <time>2014-03-02T11:35:59Z</time>
      </trkpt>
      <trkpt lat="46.00527" lon="6.48836">
        <ele>1803.1</ele>
        <time>2014-03-02T11:36:01Z</time>
      </trkpt>
      <trkpt lat="46.00522" lon="6.48835">
        <ele>1801.2</ele>
        <time>2014-03-02T11:36:14Z</time>
      </trkpt>
      <trkpt lat="46.00519" lon="6.48835">
        <ele>1799.7</ele>
        <time>2014-03-02T11:36:39Z</time>
      </trkpt>
      <trkpt lat="46.00518" lon="6.4885">
        <ele>1794.9</ele>
        <time>2014-03-02T11:36:43Z</time>
      </trkpt>
      <trkpt lat="46.00508" lon="6.48886">
        <ele>1792</ele>
        <time>2014-03-02T11:36:47Z</time>
      </trkpt>
      <trkpt lat="46.00506" lon="6.48884">
        <ele>1786.7</ele>
        <time>2014-03-02T11:36:54Z</time>
      </trkpt>
      <trkpt lat="46.00506" lon="6.48884">
        <ele>1785.3</ele>
        <time>2014-03-02T11:37:02Z</time>
      </trkpt>
      <trkpt lat="46.00483" lon="6.48864">
        <ele>1774.3</ele>
        <time>2014-03-02T11:37:11Z</time>
      </trkpt>
      <trkpt lat="46.0048" lon="6.48863">
        <ele>1773.3</ele>
        <time>2014-03-02T11:37:12Z</time>
      </trkpt>
      <trkpt lat="46.00479" lon="6.48894">
        <ele>1765.6</ele>
        <time>2014-03-02T11:37:17Z</time>
      </trkpt>
      <trkpt lat="46.00437" lon="6.48919">
        <ele>1762.2</ele>
        <time>2014-03-02T11:37:28Z</time>
      </trkpt>
      <trkpt lat="46.00437" lon="6.48919">
        <ele>1761.8</ele>
        <time>2014-03-02T11:38:24Z</time>
      </trkpt>
      <trkpt lat="46.00453" lon="6.48897">
        <ele>1758.9</ele>
        <time>2014-03-02T11:38:49Z</time>
      </trkpt>
      <trkpt lat="46.0042" lon="6.48878">
        <ele>1756.9</ele>
        <time>2014-03-02T11:38:50Z</time>
      </trkpt>
      <trkpt lat="46.0042" lon="6.48878">
        <ele>1754.1</ele>
        <time>2014-03-02T11:38:55Z</time>
      </trkpt>
      <trkpt lat="46.0042" lon="6.48878">
        <ele>1746.9</ele>
        <time>2014-03-02T11:38:59Z</time>
      </trkpt>
      <trkpt lat="46.00392" lon="6.48853">
        <ele>1732.4</ele>
        <time>2014-03-02T11:39:09Z</time>
      </trkpt>
      <trkpt lat="46.00392" lon="6.48853">
        <ele>1731</ele>
        <time>2014-03-02T11:39:33Z</time>
      </trkpt>
      <trkpt lat="46.00372" lon="6.48843">
        <ele>1719</ele>
        <time>2014-03-02T11:39:39Z</time>
      </trkpt>
      <trkpt lat="46.0036" lon="6.48827">
        <ele>1709.4</ele>
        <time>2014-03-02T11:39:44Z</time>
      </trkpt>
      <trkpt lat="46.00309" lon="6.4881">
        <ele>1697.8</ele>
        <time>2014-03-02T11:39:52Z</time>
      </trkpt>
      <trkpt lat="46.00302" lon="6.48809">
        <ele>1693</ele>
        <time>2014-03-02T11:39:55Z</time>
      </trkpt>
      <trkpt lat="46.0025" lon="6.48875">
        <ele>1682.4</ele>
        <time>2014-03-02T11:40:01Z</time>
      </trkpt>
      <trkpt lat="46.00238" lon="6.48872">
        <ele>1672.4</ele>
        <time>2014-03-02T11:40:05Z</time>
      </trkpt>
      <trkpt lat="46.002" lon="6.48882">
        <ele>1656</ele>
        <time>2014-03-02T11:40:11Z</time>
      </trkpt>
      <trkpt lat="46.00197" lon="6.48882">
        <ele>1653.1</ele>
        <time>2014-03-02T11:40:17Z</time>
      </trkpt>
      <trkpt lat="46.00197" lon="6.48882">
        <ele>1653.1</ele>
        <time>2014-03-02T11:40:21Z</time>
      </trkpt>
      <trkpt lat="46.00174" lon="6.48884">
        <ele>1648.8</ele>
        <time>2014-03-02T11:40:27Z</time>
      </trkpt>
      <trkpt lat="46.0016" lon="6.48884">
        <ele>1646.4</ele>
        <time>2014-03-02T11:40:33Z</time>
      </trkpt>
      <trkpt lat="46.00152" lon="6.48873">
        <ele>1642.1</ele>
        <time>2014-03-02T11:40:40Z</time>
      </trkpt>
      <trkpt lat="46.00145" lon="6.48863">
        <ele>1635.8</ele>
        <time>2014-03-02T11:40:44Z</time>
      </trkpt>
      <trkpt lat="46.00126" lon="6.48839">
        <ele>1632</ele>
        <time>2014-03-02T11:40:46Z</time>
      </trkpt>
      <trkpt lat="46.00109" lon="6.48826">
        <ele>1625.2</ele>
        <time>2014-03-02T11:40:50Z</time>
      </trkpt>
      <trkpt lat="46.00044" lon="6.48914">
        <ele>1611.8</ele>
        <time>2014-03-02T11:40:55Z</time>
      </trkpt>
      <trkpt lat="46.00032" lon="6.48923">
        <ele>1608.4</ele>
        <time>2014-03-02T11:40:57Z</time>
      </trkpt>
      <trkpt lat="46.00014" lon="6.48922">
        <ele>1607</ele>
        <time>2014-03-02T11:41:05Z</time>
      </trkpt>
      <trkpt lat="46.00009" lon="6.48917">
        <ele>1607</ele>
        <time>2014-03-02T11:41:28Z</time>
      </trkpt>
      <trkpt lat="45.99997" lon="6.48901">
        <ele>1607</ele>
        <time>2014-03-02T11:41:45Z</time>
      </trkpt>
      <trkpt lat="45.99989" lon="6.48887">
        <ele>1607</ele>
        <time>2014-03-02T11:42:02Z</time>
      </trkpt>
      <trkpt lat="45.99979" lon="6.48875">
        <ele>1607</ele>
        <time>2014-03-02T11:42:16Z</time>
      </trkpt>
      <trkpt lat="45.99964" lon="6.48852">
        <ele>1606</ele>
        <time>2014-03-02T11:42:34Z</time>
      </trkpt>
      <trkpt lat="45.99953" lon="6.4884">
        <ele>1607.5</ele>
        <time>2014-03-02T11:42:47Z</time>
      </trkpt>
      <trkpt lat="45.99944" lon="6.48826">
        <ele>1608.9</ele>
        <time>2014-03-02T11:43:13Z</time>
      </trkpt>
      <trkpt lat="45.99934" lon="6.4881">
        <ele>1609.9</ele>
        <time>2014-03-02T11:43:37Z</time>
      </trkpt>
      <trkpt lat="45.99924" lon="6.4879">
        <ele>1611.3</ele>
        <time>2014-03-02T11:43:59Z</time>
      </trkpt>
      <trkpt lat="45.99912" lon="6.4877">
        <ele>1612.7</ele>
        <time>2014-03-02T11:44:28Z</time>
      </trkpt>
      <trkpt lat="45.99906" lon="6.48754">
        <ele>1612.3</ele>
        <time>2014-03-02T11:44:48Z</time>
      </trkpt>
      <trkpt lat="45.99896" lon="6.48728">
        <ele>1610.8</ele>
        <time>2014-03-02T11:45:11Z</time>
      </trkpt>
      <trkpt lat="45.9989" lon="6.48705">
        <ele>1610.8</ele>
        <time>2014-03-02T11:45:31Z</time>
      </trkpt>
      <trkpt lat="45.99885" lon="6.48692">
        <ele>1610.8</ele>
        <time>2014-03-02T11:46:01Z</time>
      </trkpt>
      <trkpt lat="45.99886" lon="6.4869">
        <ele>1609.9</ele>
        <time>2014-03-02T11:48:25Z</time>
      </trkpt>
      <trkpt lat="45.99885" lon="6.48691">
        <ele>1610.3</ele>
        <time>2014-03-02T11:52:36Z</time>
      </trkpt>
      <trkpt lat="45.99885" lon="6.48692">
        <ele>1609.9</ele>
        <time>2014-03-02T11:53:31Z</time>
      </trkpt>
      <trkpt lat="45.99885" lon="6.48692">
        <ele>1609.4</ele>
        <time>2014-03-02T11:53:51Z</time>
      </trkpt>
      <trkpt lat="45.99886" lon="6.48692">
        <ele>1609.9</ele>
        <time>2014-03-02T11:54:15Z</time>
      </trkpt>
      <trkpt lat="45.99889" lon="6.48689">
        <ele>1612.3</ele>
        <time>2014-03-02T11:54:45Z</time>
      </trkpt>
      <trkpt lat="45.99894" lon="6.48687">
        <ele>1614.7</ele>
        <time>2014-03-02T11:54:59Z</time>
      </trkpt>
      <trkpt lat="45.99898" lon="6.48689">
        <ele>1616.1</ele>
        <time>2014-03-02T11:55:12Z</time>
      </trkpt>
      <trkpt lat="45.99903" lon="6.4869">
        <ele>1618.5</ele>
        <time>2014-03-02T11:55:26Z</time>
      </trkpt>
      <trkpt lat="45.99904" lon="6.48685">
        <ele>1620.4</ele>
        <time>2014-03-02T11:55:41Z</time>
      </trkpt>
      <trkpt lat="45.99905" lon="6.48681">
        <ele>1621.9</ele>
        <time>2014-03-02T11:55:56Z</time>
      </trkpt>
      <trkpt lat="45.99905" lon="6.48681">
        <ele>1621.9</ele>
        <time>2014-03-02T11:56:15Z</time>
      </trkpt>
      <trkpt lat="45.99907" lon="6.48674">
        <ele>1619.5</ele>
        <time>2014-03-02T11:56:30Z</time>
      </trkpt>
      <trkpt lat="45.9991" lon="6.48667">
        <ele>1618.5</ele>
        <time>2014-03-02T11:56:46Z</time>
      </trkpt>
      <trkpt lat="45.99914" lon="6.48667">
        <ele>1616.6</ele>
        <time>2014-03-02T11:57:09Z</time>
      </trkpt>
      <trkpt lat="45.99915" lon="6.48666">
        <ele>1616.6</ele>
        <time>2014-03-02T11:57:11Z</time>
      </trkpt>
      <trkpt lat="45.99917" lon="6.48664">
        <ele>1618</ele>
        <time>2014-03-02T11:57:21Z</time>
      </trkpt>
      <trkpt lat="45.99919" lon="6.48657">
        <ele>1619.5</ele>
        <time>2014-03-02T11:58:06Z</time>
      </trkpt>
      <trkpt lat="45.99921" lon="6.48655">
        <ele>1618</ele>
        <time>2014-03-02T11:59:44Z</time>
      </trkpt>
      <trkpt lat="45.99921" lon="6.48655">
        <ele>1618</ele>
        <time>2014-03-02T11:59:56Z</time>
      </trkpt>
      <trkpt lat="45.99922" lon="6.48656">
        <ele>1618.5</ele>
        <time>2014-03-02T12:00:21Z</time>
      </trkpt>
      <trkpt lat="45.99921" lon="6.48654">
        <ele>1618.5</ele>
        <time>2014-03-02T12:00:47Z</time>
      </trkpt>
      <trkpt lat="45.9992" lon="6.48654">
        <ele>1618.5</ele>
        <time>2014-03-02T12:01:28Z</time>
      </trkpt>
      <trkpt lat="45.9992" lon="6.48654">
        <ele>1619</ele>
        <time>2014-03-02T12:01:58Z</time>
      </trkpt>
      <trkpt lat="45.99917" lon="6.48651">
        <ele>1618</ele>
        <time>2014-03-02T12:02:11Z</time>
      </trkpt>
      <trkpt lat="45.99913" lon="6.48646">
        <ele>1615.2</ele>
        <time>2014-03-02T12:02:23Z</time>
      </trkpt>
      <trkpt lat="45.99915" lon="6.48645">
        <ele>1614.7</ele>
        <time>2014-03-02T12:02:45Z</time>
      </trkpt>
      <trkpt lat="45.99916" lon="6.48638">
        <ele>1614.2</ele>
        <time>2014-03-02T12:02:57Z</time>
      </trkpt>
      <trkpt lat="45.99915" lon="6.48638">
        <ele>1614.2</ele>
        <time>2014-03-02T12:03:36Z</time>
      </trkpt>
      <trkpt lat="45.99916" lon="6.48637">
        <ele>1613.2</ele>
        <time>2014-03-02T12:04:19Z</time>
      </trkpt>
      <trkpt lat="45.99917" lon="6.48636">
        <ele>1610.8</ele>
        <time>2014-03-02T12:05:08Z</time>
      </trkpt>
      <trkpt lat="45.99917" lon="6.48636">
        <ele>1609.4</ele>
        <time>2014-03-02T12:06:30Z</time>
      </trkpt>
      <trkpt lat="45.99907" lon="6.48616">
        <ele>1605.1</ele>
        <time>2014-03-02T12:06:41Z</time>
      </trkpt>
      <trkpt lat="45.99901" lon="6.48613">
        <ele>1602.2</ele>
        <time>2014-03-02T12:06:45Z</time>
      </trkpt>
      <trkpt lat="45.99898" lon="6.48609">
        <ele>1600.3</ele>
        <time>2014-03-02T12:06:55Z</time>
      </trkpt>
      <trkpt lat="45.99898" lon="6.48609">
        <ele>1600.3</ele>
        <time>2014-03-02T12:07:15Z</time>
      </trkpt>
      <trkpt lat="45.99891" lon="6.48613">
        <ele>1595.9</ele>
        <time>2014-03-02T12:07:20Z</time>
      </trkpt>
      <trkpt lat="45.99867" lon="6.48588">
        <ele>1585.4</ele>
        <time>2014-03-02T12:07:29Z</time>
      </trkpt>
      <trkpt lat="45.99841" lon="6.48557">
        <ele>1577.7</ele>
        <time>2014-03-02T12:07:39Z</time>
      </trkpt>
      <trkpt lat="45.9983" lon="6.48533">
        <ele>1572.9</ele>
        <time>2014-03-02T12:07:44Z</time>
      </trkpt>
      <trkpt lat="45.99823" lon="6.48514">
        <ele>1570.9</ele>
        <time>2014-03-02T12:07:47Z</time>
      </trkpt>
      <trkpt lat="45.99817" lon="6.485">
        <ele>1570.5</ele>
        <time>2014-03-02T12:07:55Z</time>
      </trkpt>
      <trkpt lat="45.99818" lon="6.485">
        <ele>1569.5</ele>
        <time>2014-03-02T12:09:13Z</time>
      </trkpt>
      <trkpt lat="45.99818" lon="6.48497">
        <ele>1569</ele>
        <time>2014-03-02T12:10:54Z</time>
      </trkpt>
      <trkpt lat="45.99819" lon="6.48494">
        <ele>1569</ele>
        <time>2014-03-02T12:10:58Z</time>
      </trkpt>
      <trkpt lat="45.99818" lon="6.48489">
        <ele>1569</ele>
        <time>2014-03-02T12:11:06Z</time>
      </trkpt>
      <trkpt lat="45.998" lon="6.48448">
        <ele>1563.7</ele>
        <time>2014-03-02T12:11:18Z</time>
      </trkpt>
      <trkpt lat="45.998" lon="6.48446">
        <ele>1563.2</ele>
        <time>2014-03-02T12:11:28Z</time>
      </trkpt>
      <trkpt lat="45.99798" lon="6.48443">
        <ele>1562.8</ele>
        <time>2014-03-02T12:11:48Z</time>
      </trkpt>
      <trkpt lat="45.99797" lon="6.48441">
        <ele>1561.8</ele>
        <time>2014-03-02T12:12:12Z</time>
      </trkpt>
      <trkpt lat="45.99796" lon="6.48438">
        <ele>1560.8</ele>
        <time>2014-03-02T12:12:33Z</time>
      </trkpt>
      <trkpt lat="45.99794" lon="6.48435">
        <ele>1560.8</ele>
        <time>2014-03-02T12:12:51Z</time>
      </trkpt>
      <trkpt lat="45.99792" lon="6.48434">
        <ele>1559.9</ele>
        <time>2014-03-02T12:13:11Z</time>
      </trkpt>
      <trkpt lat="45.99781" lon="6.48417">
        <ele>1555.1</ele>
        <time>2014-03-02T12:14:09Z</time>
      </trkpt>
      <trkpt lat="45.99764" lon="6.48396">
        <ele>1546.4</ele>
        <time>2014-03-02T12:14:20Z</time>
      </trkpt>
      <trkpt lat="45.99712" lon="6.48404">
        <ele>1539.2</ele>
        <time>2014-03-02T12:14:59Z</time>
      </trkpt>
      <trkpt lat="45.99709" lon="6.48397">
        <ele>1536.3</ele>
        <time>2014-03-02T12:15:10Z</time>
      </trkpt>
      <trkpt lat="45.99709" lon="6.48397">
        <ele>1536.3</ele>
        <time>2014-03-02T12:15:44Z</time>
      </trkpt>
      <trkpt lat="45.99739" lon="6.48376">
        <ele>1531</ele>
        <time>2014-03-02T12:15:49Z</time>
      </trkpt>
      <trkpt lat="45.99729" lon="6.48371">
        <ele>1524.3</ele>
        <time>2014-03-02T12:15:56Z</time>
      </trkpt>
      <trkpt lat="45.99699" lon="6.48372">
        <ele>1518.5</ele>
        <time>2014-03-02T12:16:02Z</time>
      </trkpt>
      <trkpt lat="45.99693" lon="6.48362">
        <ele>1513.3</ele>
        <time>2014-03-02T12:16:05Z</time>
      </trkpt>
      <trkpt lat="45.99687" lon="6.48352">
        <ele>1515.7</ele>
        <time>2014-03-02T12:16:15Z</time>
      </trkpt>
      <trkpt lat="45.99687" lon="6.48352">
        <ele>1516.1</ele>
        <time>2014-03-02T12:16:32Z</time>
      </trkpt>
      <trkpt lat="45.99687" lon="6.48352">
        <ele>1516.6</ele>
        <time>2014-03-02T12:16:48Z</time>
      </trkpt>
      <trkpt lat="45.99687" lon="6.48352">
        <ele>1516.6</ele>
        <time>2014-03-02T12:17:04Z</time>
      </trkpt>
      <trkpt lat="45.99687" lon="6.48352">
        <ele>1518.5</ele>
        <time>2014-03-02T12:17:34Z</time>
      </trkpt>
      <trkpt lat="45.99687" lon="6.48352">
        <ele>1520.9</ele>
        <time>2014-03-02T12:17:59Z</time>
      </trkpt>
      <trkpt lat="45.99687" lon="6.48352">
        <ele>1522.9</ele>
        <time>2014-03-02T12:18:24Z</time>
      </trkpt>
      <trkpt lat="45.99643" lon="6.48237">
        <ele>1524.8</ele>
        <time>2014-03-02T12:18:48Z</time>
      </trkpt>
      <trkpt lat="45.99643" lon="6.48237">
        <ele>1526.2</ele>
        <time>2014-03-02T12:19:10Z</time>
      </trkpt>
      <trkpt lat="45.99643" lon="6.48237">
        <ele>1526.7</ele>
        <time>2014-03-02T12:19:46Z</time>
      </trkpt>
      <trkpt lat="45.99643" lon="6.48237">
        <ele>1527.7</ele>
        <time>2014-03-02T12:22:08Z</time>
      </trkpt>
      <trkpt lat="45.99643" lon="6.48237">
        <ele>1526.7</ele>
        <time>2014-03-02T12:22:28Z</time>
      </trkpt>
      <trkpt lat="45.99643" lon="6.48237">
        <ele>1526.7</ele>
        <time>2014-03-02T12:22:55Z</time>
      </trkpt>
      <trkpt lat="45.99643" lon="6.48237">
        <ele>1527.2</ele>
        <time>2014-03-02T12:26:32Z</time>
      </trkpt>
      <trkpt lat="45.99643" lon="6.48237">
        <ele>1529.1</ele>
        <time>2014-03-02T12:29:05Z</time>
      </trkpt>
      <trkpt lat="45.99643" lon="6.48237">
        <ele>1529.1</ele>
        <time>2014-03-02T12:29:27Z</time>
      </trkpt>
      <trkpt lat="45.99643" lon="6.48237">
        <ele>1529.6</ele>
        <time>2014-03-02T12:29:48Z</time>
      </trkpt>
      <trkpt lat="45.99643" lon="6.48237">
        <ele>1529.6</ele>
        <time>2014-03-02T12:32:03Z</time>
      </trkpt>
      <trkpt lat="45.99643" lon="6.48237">
        <ele>1530.1</ele>
        <time>2014-03-02T12:32:08Z</time>
      </trkpt>
      <trkpt lat="45.99614" lon="6.48211">
        <ele>1533.9</ele>
        <time>2014-03-02T12:32:22Z</time>
      </trkpt>
      <trkpt lat="45.99603" lon="6.48205">
        <ele>1536.8</ele>
        <time>2014-03-02T12:32:33Z</time>
      </trkpt>
      <trkpt lat="45.99603" lon="6.48205">
        <ele>1539.2</ele>
        <time>2014-03-02T12:32:54Z</time>
      </trkpt>
      <trkpt lat="45.99582" lon="6.48181">
        <ele>1539.7</ele>
        <time>2014-03-02T12:33:13Z</time>
      </trkpt>
      <trkpt lat="45.99582" lon="6.48181">
        <ele>1541.1</ele>
        <time>2014-03-02T12:33:34Z</time>
      </trkpt>
      <trkpt lat="45.99555" lon="6.4815">
        <ele>1543.1</ele>
        <time>2014-03-02T12:33:55Z</time>
      </trkpt>
      <trkpt lat="45.99555" lon="6.4815">
        <ele>1546.9</ele>
        <time>2014-03-02T12:34:16Z</time>
      </trkpt>
      <trkpt lat="45.99555" lon="6.4815">
        <ele>1546.9</ele>
        <time>2014-03-02T12:34:20Z</time>
      </trkpt>
      <trkpt lat="45.99509" lon="6.48098">
        <ele>1549.3</ele>
        <time>2014-03-02T12:34:39Z</time>
      </trkpt>
      <trkpt lat="45.99489" lon="6.48052">
        <ele>1553.1</ele>
        <time>2014-03-02T12:35:08Z</time>
      </trkpt>
      <trkpt lat="45.99489" lon="6.48052">
        <ele>1557.5</ele>
        <time>2014-03-02T12:35:34Z</time>
      </trkpt>
      <trkpt lat="45.99489" lon="6.48052">
        <ele>1559.4</ele>
        <time>2014-03-02T12:35:51Z</time>
      </trkpt>
      <trkpt lat="45.9947" lon="6.4799">
        <ele>1561.8</ele>
        <time>2014-03-02T12:36:07Z</time>
      </trkpt>
      <trkpt lat="45.99455" lon="6.47956">
        <ele>1560.4</ele>
        <time>2014-03-02T12:36:19Z</time>
      </trkpt>
      <trkpt lat="45.99454" lon="6.47951">
        <ele>1563.7</ele>
        <time>2014-03-02T12:36:38Z</time>
      </trkpt>
      <trkpt lat="45.99454" lon="6.47951">
        <ele>1565.2</ele>
        <time>2014-03-02T12:36:55Z</time>
      </trkpt>
      <trkpt lat="45.99441" lon="6.47904">
        <ele>1565.2</ele>
        <time>2014-03-02T12:36:57Z</time>
      </trkpt>
      <trkpt lat="45.99441" lon="6.47904">
        <ele>1570.5</ele>
        <time>2014-03-02T12:37:23Z</time>
      </trkpt>
      <trkpt lat="45.99441" lon="6.47904">
        <ele>1571.4</ele>
        <time>2014-03-02T12:37:40Z</time>
      </trkpt>
      <trkpt lat="45.99441" lon="6.47904">
        <ele>1571.4</ele>
        <time>2014-03-02T12:37:46Z</time>
      </trkpt>
      <trkpt lat="45.99441" lon="6.47904">
        <ele>1575.3</ele>
        <time>2014-03-02T12:38:02Z</time>
      </trkpt>
      <trkpt lat="45.99441" lon="6.47904">
        <ele>1578.1</ele>
        <time>2014-03-02T12:38:16Z</time>
      </trkpt>
      <trkpt lat="45.99393" lon="6.47808">
        <ele>1579.1</ele>
        <time>2014-03-02T12:38:27Z</time>
      </trkpt>
      <trkpt lat="45.99393" lon="6.47808">
        <ele>1582.9</ele>
        <time>2014-03-02T12:38:39Z</time>
      </trkpt>
      <trkpt lat="45.99393" lon="6.47808">
        <ele>1586.3</ele>
        <time>2014-03-02T12:38:55Z</time>
      </trkpt>
      <trkpt lat="45.99369" lon="6.47786">
        <ele>1588.2</ele>
        <time>2014-03-02T12:39:09Z</time>
      </trkpt>
      <trkpt lat="45.99355" lon="6.47774">
        <ele>1590.2</ele>
        <time>2014-03-02T12:39:24Z</time>
      </trkpt>
      <trkpt lat="45.99355" lon="6.47774">
        <ele>1590.6</ele>
        <time>2014-03-02T12:39:25Z</time>
      </trkpt>
      <trkpt lat="45.9934" lon="6.47762">
        <ele>1593.5</ele>
        <time>2014-03-02T12:39:36Z</time>
      </trkpt>
      <trkpt lat="45.99331" lon="6.47751">
        <ele>1593.5</ele>
        <time>2014-03-02T12:39:50Z</time>
      </trkpt>
      <trkpt lat="45.99316" lon="6.47738">
        <ele>1597.4</ele>
        <time>2014-03-02T12:40:14Z</time>
      </trkpt>
      <trkpt lat="45.99286" lon="6.47711">
        <ele>1597.4</ele>
        <time>2014-03-02T12:40:36Z</time>
      </trkpt>
      <trkpt lat="45.99277" lon="6.47698">
        <ele>1598.8</ele>
        <time>2014-03-02T12:40:58Z</time>
      </trkpt>
      <trkpt lat="45.99277" lon="6.47698">
        <ele>1600.7</ele>
        <time>2014-03-02T12:41:26Z</time>
      </trkpt>
      <trkpt lat="45.99277" lon="6.47698">
        <ele>1603.1</ele>
        <time>2014-03-02T12:41:51Z</time>
      </trkpt>
      <trkpt lat="45.99229" lon="6.47588">
        <ele>1605.1</ele>
        <time>2014-03-02T12:42:15Z</time>
      </trkpt>
      <trkpt lat="45.99215" lon="6.47547">
        <ele>1606</ele>
        <time>2014-03-02T12:42:34Z</time>
      </trkpt>
      <trkpt lat="45.99215" lon="6.47545">
        <ele>1605.5</ele>
        <time>2014-03-02T12:42:35Z</time>
      </trkpt>
      <trkpt lat="45.9921" lon="6.47528">
        <ele>1604.6</ele>
        <time>2014-03-02T12:42:50Z</time>
      </trkpt>
      <trkpt lat="45.9921" lon="6.47528">
        <ele>1604.6</ele>
        <time>2014-03-02T12:43:33Z</time>
      </trkpt>
      <trkpt lat="45.99206" lon="6.47513">
        <ele>1604.1</ele>
        <time>2014-03-02T12:43:47Z</time>
      </trkpt>
      <trkpt lat="45.99203" lon="6.47503">
        <ele>1603.6</ele>
        <time>2014-03-02T12:44:01Z</time>
      </trkpt>
      <trkpt lat="45.99195" lon="6.47477">
        <ele>1600.3</ele>
        <time>2014-03-02T12:44:14Z</time>
      </trkpt>
      <trkpt lat="45.99188" lon="6.47449">
        <ele>1593</ele>
        <time>2014-03-02T12:44:19Z</time>
      </trkpt>
      <trkpt lat="45.99177" lon="6.47407">
        <ele>1585.4</ele>
        <time>2014-03-02T12:44:26Z</time>
      </trkpt>
      <trkpt lat="45.99102" lon="6.47415">
        <ele>1583.4</ele>
        <time>2014-03-02T12:44:37Z</time>
      </trkpt>
      <trkpt lat="45.99094" lon="6.4741">
        <ele>1582.5</ele>
        <time>2014-03-02T12:44:53Z</time>
      </trkpt>
      <trkpt lat="45.99072" lon="6.47387">
        <ele>1580.5</ele>
        <time>2014-03-02T12:45:09Z</time>
      </trkpt>
      <trkpt lat="45.99064" lon="6.4738">
        <ele>1579.6</ele>
        <time>2014-03-02T12:45:20Z</time>
      </trkpt>
      <trkpt lat="45.99064" lon="6.47381">
        <ele>1579.6</ele>
        <time>2014-03-02T12:45:35Z</time>
      </trkpt>
      <trkpt lat="45.99064" lon="6.47381">
        <ele>1579.6</ele>
        <time>2014-03-02T12:45:54Z</time>
      </trkpt>
      <trkpt lat="45.99064" lon="6.47381">
        <ele>1579.6</ele>
        <time>2014-03-02T12:46:34Z</time>
      </trkpt>
      <trkpt lat="45.99065" lon="6.47383">
        <ele>1580.1</ele>
        <time>2014-03-02T12:47:10Z</time>
      </trkpt>
      <trkpt lat="45.99064" lon="6.47381">
        <ele>1579.6</ele>
        <time>2014-03-02T12:47:31Z</time>
      </trkpt>
      <trkpt lat="45.9905" lon="6.47369">
        <ele>1578.6</ele>
        <time>2014-03-02T12:47:44Z</time>
      </trkpt>
      <trkpt lat="45.9905" lon="6.47369">
        <ele>1578.6</ele>
        <time>2014-03-02T12:48:22Z</time>
      </trkpt>
      <trkpt lat="45.9905" lon="6.47369">
        <ele>1578.6</ele>
        <time>2014-03-02T12:50:11Z</time>
      </trkpt>
      <trkpt lat="45.9905" lon="6.47369">
        <ele>1578.6</ele>
        <time>2014-03-02T12:50:54Z</time>
      </trkpt>
      <trkpt lat="45.99049" lon="6.47369">
        <ele>1578.6</ele>
        <time>2014-03-02T12:51:53Z</time>
      </trkpt>
      <trkpt lat="45.99045" lon="6.47366">
        <ele>1577.7</ele>
        <time>2014-03-02T12:52:47Z</time>
      </trkpt>
      <trkpt lat="45.99022" lon="6.47366">
        <ele>1574.8</ele>
        <time>2014-03-02T12:52:57Z</time>
      </trkpt>
      <trkpt lat="45.99019" lon="6.47366">
        <ele>1574.8</ele>
        <time>2014-03-02T12:53:12Z</time>
      </trkpt>
      <trkpt lat="45.99006" lon="6.47367">
        <ele>1572.4</ele>
        <time>2014-03-02T12:53:28Z</time>
      </trkpt>
      <trkpt lat="45.98982" lon="6.47365">
        <ele>1568</ele>
        <time>2014-03-02T12:53:36Z</time>
      </trkpt>
      <trkpt lat="45.98968" lon="6.47366">
        <ele>1565.2</ele>
        <time>2014-03-02T12:53:39Z</time>
      </trkpt>
      <trkpt lat="45.98915" lon="6.47396">
        <ele>1561.8</ele>
        <time>2014-03-02T12:53:44Z</time>
      </trkpt>
      <trkpt lat="45.98897" lon="6.47387">
        <ele>1550.7</ele>
        <time>2014-03-02T12:53:57Z</time>
      </trkpt>
      <trkpt lat="45.98843" lon="6.47311">
        <ele>1537.8</ele>
        <time>2014-03-02T12:54:08Z</time>
      </trkpt>
      <trkpt lat="45.98821" lon="6.47284">
        <ele>1530.1</ele>
        <time>2014-03-02T12:54:14Z</time>
      </trkpt>
      <trkpt lat="45.98819" lon="6.47281">
        <ele>1521.9</ele>
        <time>2014-03-02T12:54:22Z</time>
      </trkpt>
      <trkpt lat="45.98819" lon="6.47281">
        <ele>1520</ele>
        <time>2014-03-02T12:54:24Z</time>
      </trkpt>
      <trkpt lat="45.98808" lon="6.47139">
        <ele>1509.9</ele>
        <time>2014-03-02T12:54:35Z</time>
      </trkpt>
      <trkpt lat="45.98803" lon="6.47104">
        <ele>1506.5</ele>
        <time>2014-03-02T12:54:39Z</time>
      </trkpt>
      <trkpt lat="45.988" lon="6.47078">
        <ele>1503.2</ele>
        <time>2014-03-02T12:54:47Z</time>
      </trkpt>
      <trkpt lat="45.98753" lon="6.47029">
        <ele>1499.3</ele>
        <time>2014-03-02T12:54:58Z</time>
      </trkpt>
      <trkpt lat="45.98745" lon="6.47016">
        <ele>1497.9</ele>
        <time>2014-03-02T12:55:01Z</time>
      </trkpt>
      <trkpt lat="45.98727" lon="6.46977">
        <ele>1496.4</ele>
        <time>2014-03-02T12:55:12Z</time>
      </trkpt>
      <trkpt lat="45.98706" lon="6.46927">
        <ele>1493.1</ele>
        <time>2014-03-02T12:55:23Z</time>
      </trkpt>
      <trkpt lat="45.98682" lon="6.46873">
        <ele>1488.7</ele>
        <time>2014-03-02T12:55:38Z</time>
      </trkpt>
      <trkpt lat="45.98648" lon="6.4679">
        <ele>1483</ele>
        <time>2014-03-02T12:55:55Z</time>
      </trkpt>
      <trkpt lat="45.98631" lon="6.46753">
        <ele>1481.5</ele>
        <time>2014-03-02T12:56:06Z</time>
      </trkpt>
      <trkpt lat="45.98617" lon="6.46718">
        <ele>1477.7</ele>
        <time>2014-03-02T12:56:15Z</time>
      </trkpt>
      <trkpt lat="45.98597" lon="6.46681">
        <ele>1474.8</ele>
        <time>2014-03-02T12:56:24Z</time>
      </trkpt>
      <trkpt lat="45.98572" lon="6.46646">
        <ele>1472.4</ele>
        <time>2014-03-02T12:56:31Z</time>
      </trkpt>
      <trkpt lat="45.98555" lon="6.4663">
        <ele>1470.5</ele>
        <time>2014-03-02T12:56:35Z</time>
      </trkpt>
      <trkpt lat="45.98517" lon="6.46604">
        <ele>1467.6</ele>
        <time>2014-03-02T12:56:43Z</time>
      </trkpt>
      <trkpt lat="45.98502" lon="6.46598">
        <ele>1466.6</ele>
        <time>2014-03-02T12:56:46Z</time>
      </trkpt>
      <trkpt lat="45.98466" lon="6.46586">
        <ele>1465.2</ele>
        <time>2014-03-02T12:56:54Z</time>
      </trkpt>
      <trkpt lat="45.98454" lon="6.46582">
        <ele>1463.7</ele>
        <time>2014-03-02T12:56:57Z</time>
      </trkpt>
      <trkpt lat="45.98341" lon="6.46543">
        <ele>1453.7</ele>
        <time>2014-03-02T12:57:16Z</time>
      </trkpt>
      <trkpt lat="45.98298" lon="6.46531">
        <ele>1449.3</ele>
        <time>2014-03-02T12:57:23Z</time>
      </trkpt>
      <trkpt lat="45.98207" lon="6.4655">
        <ele>1442.1</ele>
        <time>2014-03-02T12:57:38Z</time>
      </trkpt>
      <trkpt lat="45.98148" lon="6.46565">
        <ele>1437.3</ele>
        <time>2014-03-02T12:57:50Z</time>
      </trkpt>
      <trkpt lat="45.98091" lon="6.4658">
        <ele>1432.5</ele>
        <time>2014-03-02T12:58:05Z</time>
      </trkpt>
      <trkpt lat="45.9802" lon="6.46604">
        <ele>1427.7</ele>
        <time>2014-03-02T12:58:21Z</time>
      </trkpt>
      <trkpt lat="45.97953" lon="6.46665">
        <ele>1421</ele>
        <time>2014-03-02T12:58:38Z</time>
      </trkpt>
      <trkpt lat="45.97913" lon="6.46702">
        <ele>1417.6</ele>
        <time>2014-03-02T12:58:48Z</time>
      </trkpt>
      <trkpt lat="45.97893" lon="6.46728">
        <ele>1415.7</ele>
        <time>2014-03-02T12:58:54Z</time>
      </trkpt>
      <trkpt lat="45.97854" lon="6.46827">
        <ele>1408.9</ele>
        <time>2014-03-02T12:59:13Z</time>
      </trkpt>
      <trkpt lat="45.9782" lon="6.46868">
        <ele>1405.6</ele>
        <time>2014-03-02T12:59:26Z</time>
      </trkpt>
      <trkpt lat="45.97813" lon="6.46873">
        <ele>1405.1</ele>
        <time>2014-03-02T12:59:29Z</time>
      </trkpt>
      <trkpt lat="45.97768" lon="6.46895">
        <ele>1401.7</ele>
        <time>2014-03-02T12:59:48Z</time>
      </trkpt>
    </trkseg>
  </trk>
</gpx>